<?xml version="1.0" encoding="UTF-8" standalone="no" ?>
<gpx xmlns="http://www.topografix.com/GPX/1/1" xmlns:xsi="http://www.w3.org/2001/XMLSchema-instance" xsi:schemaLocation="http://www.topografix.com/GPX/1/1 http://www.topografix.com/GPX/1/1/gpx.xsd" version="1.1" creator="VisuGPX - https://www.visugpx.com">
  <metadata>
    <name>Armissan - tour de l'Hospitalet</name>
    <desc><![CDATA[2016-12 - Armissan - tour de l'Hospitalet

[b]album[/b] : [url]https://goo.gl/photos/MUUG6s8ideyY58B86[/url]
[img]https://2.bp.blogspot.com/-oYs2Ky0wIhk/WOjk7LuF6oI/AAAAAAAASGI/1z56SrDoIqUxX_JYFuMRVQGfKuk_9KjMwCLcB/s1600/2016-12_armissan_i.JPG[/img]
[b]Idées de randonnées dans la même région[/b]
Parcours : [url]https://www.visugpx.com/membres/24856/littoral/[/url]
Photos : [url]https://jcvertygo.blogspot.com/p/littoral.html[/url]]]></desc>
  </metadata>
  <trk>
    <name><![CDATA[Armissan - tour de l'Hospitalet_1]]></name>
    <trkseg>
      <trkpt lat="43.1882" lon="3.09221">
        <ele>38.8</ele>
        <time>2016-12-28T11:19:22Z</time>
      </trkpt>
      <trkpt lat="43.18817" lon="3.09221">
        <ele>38.8</ele>
        <time>2016-12-28T11:19:27Z</time>
      </trkpt>
      <trkpt lat="43.18816" lon="3.09233">
        <ele>38.612980295278</ele>
        <time>2016-12-28T11:19:32Z</time>
      </trkpt>
      <trkpt lat="43.18814" lon="3.09241">
        <ele>38.612980295278</ele>
        <time>2016-12-28T11:19:37Z</time>
      </trkpt>
      <trkpt lat="43.18816" lon="3.09243">
        <ele>38.612980295278</ele>
        <time>2016-12-28T11:19:42Z</time>
      </trkpt>
      <trkpt lat="43.18815" lon="3.09234">
        <ele>38.805152180871</ele>
        <time>2016-12-28T11:20:07Z</time>
      </trkpt>
      <trkpt lat="43.18817" lon="3.09229">
        <ele>38.805152180871</ele>
        <time>2016-12-28T11:20:12Z</time>
      </trkpt>
      <trkpt lat="43.18817" lon="3.09224">
        <ele>38.805152180871</ele>
        <time>2016-12-28T11:20:17Z</time>
      </trkpt>
      <trkpt lat="43.18816" lon="3.09217">
        <ele>38.798768330149</ele>
        <time>2016-12-28T11:20:22Z</time>
      </trkpt>
      <trkpt lat="43.18819" lon="3.09212">
        <ele>38.798768330149</ele>
        <time>2016-12-28T11:20:27Z</time>
      </trkpt>
      <trkpt lat="43.18821" lon="3.09208">
        <ele>38.798768330149</ele>
        <time>2016-12-28T11:20:32Z</time>
      </trkpt>
      <trkpt lat="43.18826" lon="3.09202">
        <ele>38.652528421038</ele>
        <time>2016-12-28T11:20:37Z</time>
      </trkpt>
      <trkpt lat="43.18827" lon="3.092">
        <ele>38.652528421038</ele>
        <time>2016-12-28T11:20:42Z</time>
      </trkpt>
      <trkpt lat="43.1883" lon="3.09198">
        <ele>38.652528421038</ele>
        <time>2016-12-28T11:20:52Z</time>
      </trkpt>
      <trkpt lat="43.18831" lon="3.09193">
        <ele>38.14247665543</ele>
        <time>2016-12-28T11:20:57Z</time>
      </trkpt>
      <trkpt lat="43.18837" lon="3.09187">
        <ele>38.14247665543</ele>
        <time>2016-12-28T11:21:07Z</time>
      </trkpt>
      <trkpt lat="43.18842" lon="3.09189">
        <ele>37.53610699869</ele>
        <time>2016-12-28T11:21:12Z</time>
      </trkpt>
      <trkpt lat="43.18851" lon="3.09194">
        <ele>36.960008688241</ele>
        <time>2016-12-28T11:21:22Z</time>
      </trkpt>
      <trkpt lat="43.18856" lon="3.09196">
        <ele>36.960008688241</ele>
        <time>2016-12-28T11:21:27Z</time>
      </trkpt>
      <trkpt lat="43.18861" lon="3.09199">
        <ele>36.506915479481</ele>
        <time>2016-12-28T11:21:32Z</time>
      </trkpt>
      <trkpt lat="43.18866" lon="3.09202">
        <ele>36.506915479481</ele>
        <time>2016-12-28T11:21:37Z</time>
      </trkpt>
      <trkpt lat="43.18871" lon="3.09204">
        <ele>36.051164923973</ele>
        <time>2016-12-28T11:21:42Z</time>
      </trkpt>
      <trkpt lat="43.18891" lon="3.09211">
        <ele>35.515903871633</ele>
        <time>2016-12-28T11:22:00Z</time>
      </trkpt>
      <trkpt lat="43.18904" lon="3.09153">
        <ele>34.406119757794</ele>
        <time>2016-12-28T11:22:37Z</time>
      </trkpt>
      <trkpt lat="43.18907" lon="3.09146">
        <ele>34.406119757794</ele>
        <time>2016-12-28T11:22:42Z</time>
      </trkpt>
      <trkpt lat="43.1891" lon="3.09123">
        <ele>33.106928608804</ele>
        <time>2016-12-28T11:23:08Z</time>
      </trkpt>
      <trkpt lat="43.18966" lon="3.09102">
        <ele>31.660278765466</ele>
        <time>2016-12-28T11:24:06Z</time>
      </trkpt>
      <trkpt lat="43.18995" lon="3.09122">
        <ele>30.808592951925</ele>
        <time>2016-12-28T11:24:37Z</time>
      </trkpt>
      <trkpt lat="43.19032" lon="3.09175">
        <ele>30.555582341641</ele>
        <time>2016-12-28T11:25:17Z</time>
      </trkpt>
      <trkpt lat="43.19034" lon="3.09182">
        <ele>30.555582341641</ele>
        <time>2016-12-28T11:25:22Z</time>
      </trkpt>
      <trkpt lat="43.19039" lon="3.09197">
        <ele>30.530509091597</ele>
        <time>2016-12-28T11:25:32Z</time>
      </trkpt>
      <trkpt lat="43.19042" lon="3.09206">
        <ele>30.530509091597</ele>
        <time>2016-12-28T11:25:37Z</time>
      </trkpt>
      <trkpt lat="43.19045" lon="3.09223">
        <ele>30.691254834708</ele>
        <time>2016-12-28T11:25:47Z</time>
      </trkpt>
      <trkpt lat="43.19049" lon="3.09229">
        <ele>30.691254834708</ele>
        <time>2016-12-28T11:25:52Z</time>
      </trkpt>
      <trkpt lat="43.19083" lon="3.09299">
        <ele>31.304745489031</ele>
        <time>2016-12-28T11:26:37Z</time>
      </trkpt>
      <trkpt lat="43.19086" lon="3.0931">
        <ele>31.304745489031</ele>
        <time>2016-12-28T11:26:42Z</time>
      </trkpt>
      <trkpt lat="43.19159" lon="3.0939">
        <ele>35.355429760205</ele>
        <time>2016-12-28T11:28:37Z</time>
      </trkpt>
      <trkpt lat="43.19181" lon="3.09383">
        <ele>38.663880964614</ele>
        <time>2016-12-28T11:29:23Z</time>
      </trkpt>
      <trkpt lat="43.19183" lon="3.09381">
        <ele>38.663880964614</ele>
        <time>2016-12-28T11:29:24Z</time>
      </trkpt>
      <trkpt lat="43.19235" lon="3.09293">
        <ele>40.527234200735</ele>
        <time>2016-12-28T11:30:48Z</time>
      </trkpt>
      <trkpt lat="43.19242" lon="3.09289">
        <ele>40.527234200735</ele>
        <time>2016-12-28T11:30:48Z</time>
      </trkpt>
      <trkpt lat="43.19253" lon="3.09282">
        <ele>42.459193062263</ele>
        <time>2016-12-28T11:31:09Z</time>
      </trkpt>
      <trkpt lat="43.19258" lon="3.09278">
        <ele>42.459193062263</ele>
        <time>2016-12-28T11:31:09Z</time>
      </trkpt>
      <trkpt lat="43.19265" lon="3.09271">
        <ele>44.612366553133</ele>
        <time>2016-12-28T11:31:18Z</time>
      </trkpt>
      <trkpt lat="43.19287" lon="3.09243">
        <ele>47.239081097094</ele>
        <time>2016-12-28T11:31:47Z</time>
      </trkpt>
      <trkpt lat="43.19297" lon="3.09223">
        <ele>50.080652271122</ele>
        <time>2016-12-28T11:32:37Z</time>
      </trkpt>
      <trkpt lat="43.19301" lon="3.09225">
        <ele>50.080652271122</ele>
        <time>2016-12-28T11:34:31Z</time>
      </trkpt>
      <trkpt lat="43.19304" lon="3.09216">
        <ele>53.068951921087</ele>
        <time>2016-12-28T11:34:50Z</time>
      </trkpt>
      <trkpt lat="43.19309" lon="3.09211">
        <ele>53.068951921087</ele>
        <time>2016-12-28T11:34:50Z</time>
      </trkpt>
      <trkpt lat="43.19323" lon="3.09194">
        <ele>56.144786235822</ele>
        <time>2016-12-28T11:35:25Z</time>
      </trkpt>
      <trkpt lat="43.19337" lon="3.09176">
        <ele>59.482042823079</ele>
        <time>2016-12-28T11:35:50Z</time>
      </trkpt>
      <trkpt lat="43.19346" lon="3.09168">
        <ele>62.649220285776</ele>
        <time>2016-12-28T11:36:07Z</time>
      </trkpt>
      <trkpt lat="43.19359" lon="3.09156">
        <ele>65.701812290053</ele>
        <time>2016-12-28T11:36:27Z</time>
      </trkpt>
      <trkpt lat="43.19369" lon="3.09148">
        <ele>68.731067530004</ele>
        <time>2016-12-28T11:36:51Z</time>
      </trkpt>
      <trkpt lat="43.19399" lon="3.09117">
        <ele>72.333395739076</ele>
        <time>2016-12-28T11:37:58Z</time>
      </trkpt>
      <trkpt lat="43.19408" lon="3.09103">
        <ele>75.756297702432</ele>
        <time>2016-12-28T11:38:15Z</time>
      </trkpt>
      <trkpt lat="43.19421" lon="3.09089">
        <ele>79.161469482549</ele>
        <time>2016-12-28T11:38:28Z</time>
      </trkpt>
      <trkpt lat="43.19422" lon="3.0909">
        <ele>79.161469482549</ele>
        <time>2016-12-28T11:38:28Z</time>
      </trkpt>
      <trkpt lat="43.19427" lon="3.0911">
        <ele>82.322384047658</ele>
        <time>2016-12-28T11:38:43Z</time>
      </trkpt>
      <trkpt lat="43.19429" lon="3.0912">
        <ele>82.322384047658</ele>
        <time>2016-12-28T11:38:49Z</time>
      </trkpt>
      <trkpt lat="43.19445" lon="3.09153">
        <ele>85.641765309019</ele>
        <time>2016-12-28T11:39:26Z</time>
      </trkpt>
      <trkpt lat="43.19449" lon="3.09163">
        <ele>85.641765309019</ele>
        <time>2016-12-28T11:39:29Z</time>
      </trkpt>
      <trkpt lat="43.19456" lon="3.09169">
        <ele>88.780362824694</ele>
        <time>2016-12-28T11:39:37Z</time>
      </trkpt>
      <trkpt lat="43.19488" lon="3.09208">
        <ele>92.437708886119</ele>
        <time>2016-12-28T11:40:37Z</time>
      </trkpt>
      <trkpt lat="43.19495" lon="3.09209">
        <ele>92.437708886119</ele>
        <time>2016-12-28T11:40:37Z</time>
      </trkpt>
      <trkpt lat="43.19541" lon="3.09228">
        <ele>96.719717089187</ele>
        <time>2016-12-28T11:41:25Z</time>
      </trkpt>
      <trkpt lat="43.196" lon="3.09288">
        <ele>100.96343940851</ele>
        <time>2016-12-28T11:42:20Z</time>
      </trkpt>
      <trkpt lat="43.19626" lon="3.0929">
        <ele>105.03071265045</ele>
        <time>2016-12-28T11:42:37Z</time>
      </trkpt>
      <trkpt lat="43.19633" lon="3.09291">
        <ele>105.03071265045</ele>
        <time>2016-12-28T11:42:46Z</time>
      </trkpt>
      <trkpt lat="43.19649" lon="3.09296">
        <ele>108.67440187173</ele>
        <time>2016-12-28T11:42:52Z</time>
      </trkpt>
      <trkpt lat="43.19654" lon="3.09295">
        <ele>108.67440187173</ele>
        <time>2016-12-28T11:42:57Z</time>
      </trkpt>
      <trkpt lat="43.1966" lon="3.09295">
        <ele>112.23411232493</ele>
        <time>2016-12-28T11:43:02Z</time>
      </trkpt>
      <trkpt lat="43.19665" lon="3.09294">
        <ele>112.23411232493</ele>
        <time>2016-12-28T11:43:07Z</time>
      </trkpt>
      <trkpt lat="43.1967" lon="3.09293">
        <ele>115.53099700216</ele>
        <time>2016-12-28T11:43:12Z</time>
      </trkpt>
      <trkpt lat="43.19675" lon="3.09293">
        <ele>115.53099700216</ele>
        <time>2016-12-28T11:43:17Z</time>
      </trkpt>
      <trkpt lat="43.19681" lon="3.09294">
        <ele>118.72417165786</ele>
        <time>2016-12-28T11:43:22Z</time>
      </trkpt>
      <trkpt lat="43.19687" lon="3.09296">
        <ele>118.72417165786</ele>
        <time>2016-12-28T11:43:27Z</time>
      </trkpt>
      <trkpt lat="43.19695" lon="3.09298">
        <ele>121.65196434062</ele>
        <time>2016-12-28T11:43:32Z</time>
      </trkpt>
      <trkpt lat="43.19699" lon="3.09302">
        <ele>121.65196434062</ele>
        <time>2016-12-28T11:43:37Z</time>
      </trkpt>
      <trkpt lat="43.19704" lon="3.09306">
        <ele>124.37381140758</ele>
        <time>2016-12-28T11:43:42Z</time>
      </trkpt>
      <trkpt lat="43.19709" lon="3.09309">
        <ele>124.37381140758</ele>
        <time>2016-12-28T11:43:47Z</time>
      </trkpt>
      <trkpt lat="43.19754" lon="3.09332">
        <ele>126.37692063671</ele>
        <time>2016-12-28T11:44:22Z</time>
      </trkpt>
      <trkpt lat="43.19754" lon="3.09334">
        <ele>126.37692063671</ele>
        <time>2016-12-28T11:44:37Z</time>
      </trkpt>
      <trkpt lat="43.1978" lon="3.09338">
        <ele>127.38211374303</ele>
        <time>2016-12-28T11:44:49Z</time>
      </trkpt>
      <trkpt lat="43.19835" lon="3.09367">
        <ele>127.4066495249</ele>
        <time>2016-12-28T11:45:36Z</time>
      </trkpt>
      <trkpt lat="43.19846" lon="3.09381">
        <ele>127.1513405394</ele>
        <time>2016-12-28T11:45:49Z</time>
      </trkpt>
      <trkpt lat="43.19846" lon="3.09383">
        <ele>127.1513405394</ele>
        <time>2016-12-28T11:45:49Z</time>
      </trkpt>
      <trkpt lat="43.19858" lon="3.09396">
        <ele>126.67865262406</ele>
        <time>2016-12-28T11:46:06Z</time>
      </trkpt>
      <trkpt lat="43.19888" lon="3.09451">
        <ele>126.25833643776</ele>
        <time>2016-12-28T11:46:42Z</time>
      </trkpt>
      <trkpt lat="43.19904" lon="3.09468">
        <ele>125.86695636035</ele>
        <time>2016-12-28T11:47:09Z</time>
      </trkpt>
      <trkpt lat="43.19972" lon="3.09499">
        <ele>126.25087163798</ele>
        <time>2016-12-28T11:48:03Z</time>
      </trkpt>
      <trkpt lat="43.19985" lon="3.09512">
        <ele>126.69275061119</ele>
        <time>2016-12-28T11:48:15Z</time>
      </trkpt>
      <trkpt lat="43.19988" lon="3.09514">
        <ele>126.69275061119</ele>
        <time>2016-12-28T11:48:18Z</time>
      </trkpt>
      <trkpt lat="43.2" lon="3.09528">
        <ele>127.02867578026</ele>
        <time>2016-12-28T11:48:30Z</time>
      </trkpt>
      <trkpt lat="43.20007" lon="3.09537">
        <ele>127.10829243016</ele>
        <time>2016-12-28T11:48:37Z</time>
      </trkpt>
      <trkpt lat="43.20013" lon="3.09546">
        <ele>127.10829243016</ele>
        <time>2016-12-28T11:48:44Z</time>
      </trkpt>
      <trkpt lat="43.20034" lon="3.09572">
        <ele>127.07871389563</ele>
        <time>2016-12-28T11:49:49Z</time>
      </trkpt>
      <trkpt lat="43.20039" lon="3.09596">
        <ele>126.94046550397</ele>
        <time>2016-12-28T11:51:47Z</time>
      </trkpt>
      <trkpt lat="43.20037" lon="3.09599">
        <ele>126.94046550397</ele>
        <time>2016-12-28T11:52:02Z</time>
      </trkpt>
      <trkpt lat="43.20033" lon="3.09603">
        <ele>126.94046550397</ele>
        <time>2016-12-28T11:52:07Z</time>
      </trkpt>
      <trkpt lat="43.20029" lon="3.09608">
        <ele>126.64941192654</ele>
        <time>2016-12-28T11:52:12Z</time>
      </trkpt>
      <trkpt lat="43.20025" lon="3.09615">
        <ele>126.64941192654</ele>
        <time>2016-12-28T11:52:17Z</time>
      </trkpt>
      <trkpt lat="43.20023" lon="3.09622">
        <ele>126.150476773</ele>
        <time>2016-12-28T11:52:22Z</time>
      </trkpt>
      <trkpt lat="43.20021" lon="3.0963">
        <ele>126.150476773</ele>
        <time>2016-12-28T11:52:27Z</time>
      </trkpt>
      <trkpt lat="43.20019" lon="3.09637">
        <ele>125.36393331082</ele>
        <time>2016-12-28T11:52:32Z</time>
      </trkpt>
      <trkpt lat="43.20018" lon="3.09645">
        <ele>125.36393331082</ele>
        <time>2016-12-28T11:52:37Z</time>
      </trkpt>
      <trkpt lat="43.20014" lon="3.09658">
        <ele>124.24687389101</ele>
        <time>2016-12-28T11:52:59Z</time>
      </trkpt>
      <trkpt lat="43.20005" lon="3.0969">
        <ele>122.7458693151</ele>
        <time>2016-12-28T11:53:46Z</time>
      </trkpt>
      <trkpt lat="43.19996" lon="3.09701">
        <ele>121.22460966385</ele>
        <time>2016-12-28T11:53:46Z</time>
      </trkpt>
      <trkpt lat="43.19986" lon="3.09722">
        <ele>119.63473640196</ele>
        <time>2016-12-28T11:54:00Z</time>
      </trkpt>
      <trkpt lat="43.19983" lon="3.09727">
        <ele>119.63473640196</ele>
        <time>2016-12-28T11:54:19Z</time>
      </trkpt>
      <trkpt lat="43.19976" lon="3.09755">
        <ele>117.69749853083</ele>
        <time>2016-12-28T11:54:19Z</time>
      </trkpt>
      <trkpt lat="43.19965" lon="3.09782">
        <ele>115.61076915266</ele>
        <time>2016-12-28T11:54:37Z</time>
      </trkpt>
      <trkpt lat="43.1996" lon="3.09788">
        <ele>115.61076915266</ele>
        <time>2016-12-28T11:54:42Z</time>
      </trkpt>
      <trkpt lat="43.19959" lon="3.09794">
        <ele>112.84151461155</ele>
        <time>2016-12-28T11:55:00Z</time>
      </trkpt>
      <trkpt lat="43.19958" lon="3.09797">
        <ele>112.84151461155</ele>
        <time>2016-12-28T11:55:02Z</time>
      </trkpt>
      <trkpt lat="43.19944" lon="3.09832">
        <ele>110.0517661863</ele>
        <time>2016-12-28T11:55:34Z</time>
      </trkpt>
      <trkpt lat="43.19938" lon="3.09845">
        <ele>107.42856251984</ele>
        <time>2016-12-28T11:55:34Z</time>
      </trkpt>
      <trkpt lat="43.19924" lon="3.09872">
        <ele>104.73692642221</ele>
        <time>2016-12-28T11:55:59Z</time>
      </trkpt>
      <trkpt lat="43.19917" lon="3.09886">
        <ele>102.1665250249</ele>
        <time>2016-12-28T11:55:59Z</time>
      </trkpt>
      <trkpt lat="43.199" lon="3.09918">
        <ele>99.558510094521</ele>
        <time>2016-12-28T11:56:29Z</time>
      </trkpt>
      <trkpt lat="43.19896" lon="3.09927">
        <ele>99.558510094521</ele>
        <time>2016-12-28T11:56:29Z</time>
      </trkpt>
      <trkpt lat="43.19894" lon="3.09936">
        <ele>97.084697674595</ele>
        <time>2016-12-28T11:56:37Z</time>
      </trkpt>
      <trkpt lat="43.19891" lon="3.09946">
        <ele>97.084697674595</ele>
        <time>2016-12-28T11:56:46Z</time>
      </trkpt>
      <trkpt lat="43.1986" lon="3.10002">
        <ele>94.888674410356</ele>
        <time>2016-12-28T11:57:24Z</time>
      </trkpt>
      <trkpt lat="43.19845" lon="3.10043">
        <ele>92.870955012223</ele>
        <time>2016-12-28T11:57:44Z</time>
      </trkpt>
      <trkpt lat="43.19844" lon="3.10046">
        <ele>92.870955012223</ele>
        <time>2016-12-28T11:57:53Z</time>
      </trkpt>
      <trkpt lat="43.19839" lon="3.10057">
        <ele>90.866775486989</ele>
        <time>2016-12-28T11:57:53Z</time>
      </trkpt>
      <trkpt lat="43.19809" lon="3.10128">
        <ele>88.810176732932</ele>
        <time>2016-12-28T11:58:39Z</time>
      </trkpt>
      <trkpt lat="43.19806" lon="3.10133">
        <ele>88.810176732932</ele>
        <time>2016-12-28T11:58:42Z</time>
      </trkpt>
      <trkpt lat="43.19792" lon="3.10166">
        <ele>86.640023635702</ele>
        <time>2016-12-28T11:59:02Z</time>
      </trkpt>
      <trkpt lat="43.19768" lon="3.10204">
        <ele>84.040098570146</ele>
        <time>2016-12-28T11:59:37Z</time>
      </trkpt>
      <trkpt lat="43.19766" lon="3.10211">
        <ele>84.040098570146</ele>
        <time>2016-12-28T11:59:37Z</time>
      </trkpt>
      <trkpt lat="43.19753" lon="3.10244">
        <ele>81.454119243423</ele>
        <time>2016-12-28T12:00:02Z</time>
      </trkpt>
      <trkpt lat="43.19745" lon="3.10269">
        <ele>79.321337746706</ele>
        <time>2016-12-28T12:00:22Z</time>
      </trkpt>
      <trkpt lat="43.19743" lon="3.10277">
        <ele>79.321337746706</ele>
        <time>2016-12-28T12:00:27Z</time>
      </trkpt>
      <trkpt lat="43.19741" lon="3.10284">
        <ele>77.470261137674</ele>
        <time>2016-12-28T12:00:39Z</time>
      </trkpt>
      <trkpt lat="43.19736" lon="3.10308">
        <ele>75.957316385568</ele>
        <time>2016-12-28T12:01:05Z</time>
      </trkpt>
      <trkpt lat="43.19735" lon="3.10317">
        <ele>75.957316385568</ele>
        <time>2016-12-28T12:01:05Z</time>
      </trkpt>
      <trkpt lat="43.19731" lon="3.10343">
        <ele>74.93450405235</ele>
        <time>2016-12-28T12:02:04Z</time>
      </trkpt>
      <trkpt lat="43.19729" lon="3.10352">
        <ele>74.93450405235</ele>
        <time>2016-12-28T12:02:04Z</time>
      </trkpt>
      <trkpt lat="43.19709" lon="3.10374">
        <ele>74.353601744075</ele>
        <time>2016-12-28T12:02:33Z</time>
      </trkpt>
      <trkpt lat="43.197" lon="3.10385">
        <ele>73.937758491117</ele>
        <time>2016-12-28T12:02:33Z</time>
      </trkpt>
      <trkpt lat="43.19693" lon="3.10393">
        <ele>73.617167192127</ele>
        <time>2016-12-28T12:02:42Z</time>
      </trkpt>
      <trkpt lat="43.19683" lon="3.10444">
        <ele>73.71594992284</ele>
        <time>2016-12-28T12:03:23Z</time>
      </trkpt>
      <trkpt lat="43.1968" lon="3.10455">
        <ele>73.71594992284</ele>
        <time>2016-12-28T12:03:23Z</time>
      </trkpt>
      <trkpt lat="43.19679" lon="3.10575">
        <ele>75.109872101772</ele>
        <time>2016-12-28T12:04:44Z</time>
      </trkpt>
      <trkpt lat="43.19667" lon="3.10604">
        <ele>76.645387597033</ele>
        <time>2016-12-28T12:05:04Z</time>
      </trkpt>
      <trkpt lat="43.19666" lon="3.10606">
        <ele>76.645387597033</ele>
        <time>2016-12-28T12:05:04Z</time>
      </trkpt>
      <trkpt lat="43.19636" lon="3.10644">
        <ele>78.522071803476</ele>
        <time>2016-12-28T12:05:57Z</time>
      </trkpt>
      <trkpt lat="43.19619" lon="3.10651">
        <ele>80.692999475238</ele>
        <time>2016-12-28T12:05:57Z</time>
      </trkpt>
      <trkpt lat="43.19605" lon="3.10653">
        <ele>82.926247160654</ele>
        <time>2016-12-28T12:06:07Z</time>
      </trkpt>
      <trkpt lat="43.19601" lon="3.10657">
        <ele>82.926247160654</ele>
        <time>2016-12-28T12:06:12Z</time>
      </trkpt>
      <trkpt lat="43.19598" lon="3.10664">
        <ele>85.439376452626</ele>
        <time>2016-12-28T12:06:17Z</time>
      </trkpt>
      <trkpt lat="43.19597" lon="3.10672">
        <ele>85.439376452626</ele>
        <time>2016-12-28T12:06:22Z</time>
      </trkpt>
      <trkpt lat="43.19595" lon="3.1068">
        <ele>88.101398982987</ele>
        <time>2016-12-28T12:06:27Z</time>
      </trkpt>
      <trkpt lat="43.19593" lon="3.10689">
        <ele>88.101398982987</ele>
        <time>2016-12-28T12:06:32Z</time>
      </trkpt>
      <trkpt lat="43.19591" lon="3.10698">
        <ele>90.804949218295</ele>
        <time>2016-12-28T12:06:37Z</time>
      </trkpt>
      <trkpt lat="43.19589" lon="3.10707">
        <ele>90.804949218295</ele>
        <time>2016-12-28T12:06:42Z</time>
      </trkpt>
      <trkpt lat="43.19588" lon="3.10715">
        <ele>93.349496309459</ele>
        <time>2016-12-28T12:06:47Z</time>
      </trkpt>
      <trkpt lat="43.19587" lon="3.10724">
        <ele>93.349496309459</ele>
        <time>2016-12-28T12:06:52Z</time>
      </trkpt>
      <trkpt lat="43.19584" lon="3.10732">
        <ele>95.60746348555</ele>
        <time>2016-12-28T12:06:57Z</time>
      </trkpt>
      <trkpt lat="43.19583" lon="3.10741">
        <ele>95.60746348555</ele>
        <time>2016-12-28T12:07:02Z</time>
      </trkpt>
      <trkpt lat="43.19581" lon="3.10747">
        <ele>97.721194404088</ele>
        <time>2016-12-28T12:07:07Z</time>
      </trkpt>
      <trkpt lat="43.1958" lon="3.10755">
        <ele>97.721194404088</ele>
        <time>2016-12-28T12:07:12Z</time>
      </trkpt>
      <trkpt lat="43.19578" lon="3.10759">
        <ele>99.76538435497</ele>
        <time>2016-12-28T12:07:17Z</time>
      </trkpt>
      <trkpt lat="43.19576" lon="3.10765">
        <ele>99.76538435497</ele>
        <time>2016-12-28T12:07:22Z</time>
      </trkpt>
      <trkpt lat="43.19574" lon="3.10772">
        <ele>101.75185958245</ele>
        <time>2016-12-28T12:07:27Z</time>
      </trkpt>
      <trkpt lat="43.19572" lon="3.10782">
        <ele>101.75185958245</ele>
        <time>2016-12-28T12:07:32Z</time>
      </trkpt>
      <trkpt lat="43.19555" lon="3.10844">
        <ele>103.41784082266</ele>
        <time>2016-12-28T12:08:08Z</time>
      </trkpt>
      <trkpt lat="43.19554" lon="3.10846">
        <ele>103.41784082266</ele>
        <time>2016-12-28T12:08:09Z</time>
      </trkpt>
      <trkpt lat="43.19534" lon="3.10896">
        <ele>104.86708935927</ele>
        <time>2016-12-28T12:08:44Z</time>
      </trkpt>
      <trkpt lat="43.19507" lon="3.10905">
        <ele>106.18206939972</ele>
        <time>2016-12-28T12:09:16Z</time>
      </trkpt>
      <trkpt lat="43.19395" lon="3.1098">
        <ele>107.29549776829</ele>
        <time>2016-12-28T12:10:39Z</time>
      </trkpt>
      <trkpt lat="43.19391" lon="3.10983">
        <ele>107.29549776829</ele>
        <time>2016-12-28T12:10:42Z</time>
      </trkpt>
      <trkpt lat="43.19379" lon="3.10992">
        <ele>108.0304136893</ele>
        <time>2016-12-28T12:11:00Z</time>
      </trkpt>
      <trkpt lat="43.19334" lon="3.11017">
        <ele>108.15201949756</ele>
        <time>2016-12-28T12:11:38Z</time>
      </trkpt>
      <trkpt lat="43.19301" lon="3.10947">
        <ele>108.28098416794</ele>
        <time>2016-12-28T12:12:24Z</time>
      </trkpt>
      <trkpt lat="43.19301" lon="3.10923">
        <ele>108.70401511202</ele>
        <time>2016-12-28T12:12:38Z</time>
      </trkpt>
      <trkpt lat="43.19301" lon="3.10913">
        <ele>108.70401511202</ele>
        <time>2016-12-28T12:12:38Z</time>
      </trkpt>
      <trkpt lat="43.19299" lon="3.10897">
        <ele>109.31116591665</ele>
        <time>2016-12-28T12:12:47Z</time>
      </trkpt>
      <trkpt lat="43.19294" lon="3.10849">
        <ele>110.12996163283</ele>
        <time>2016-12-28T12:13:22Z</time>
      </trkpt>
      <trkpt lat="43.19289" lon="3.10835">
        <ele>110.94037006096</ele>
        <time>2016-12-28T12:13:22Z</time>
      </trkpt>
      <trkpt lat="43.19288" lon="3.10829">
        <ele>110.94037006096</ele>
        <time>2016-12-28T12:13:31Z</time>
      </trkpt>
      <trkpt lat="43.19275" lon="3.10813">
        <ele>111.6828703677</ele>
        <time>2016-12-28T12:13:39Z</time>
      </trkpt>
      <trkpt lat="43.19266" lon="3.10804">
        <ele>112.28822616665</ele>
        <time>2016-12-28T12:14:00Z</time>
      </trkpt>
      <trkpt lat="43.19246" lon="3.10776">
        <ele>112.63514712237</ele>
        <time>2016-12-28T12:14:12Z</time>
      </trkpt>
      <trkpt lat="43.19243" lon="3.10777">
        <ele>112.63514712237</ele>
        <time>2016-12-28T12:14:17Z</time>
      </trkpt>
      <trkpt lat="43.19243" lon="3.10778">
        <ele>112.63514712237</ele>
        <time>2016-12-28T12:14:22Z</time>
      </trkpt>
      <trkpt lat="43.19245" lon="3.10782">
        <ele>112.63514712237</ele>
        <time>2016-12-28T12:15:41Z</time>
      </trkpt>
      <trkpt lat="43.19264" lon="3.10794">
        <ele>112.4967992334</ele>
        <time>2016-12-28T12:16:33Z</time>
      </trkpt>
      <trkpt lat="43.19295" lon="3.10851">
        <ele>112.38517254094</ele>
        <time>2016-12-28T12:17:21Z</time>
      </trkpt>
      <trkpt lat="43.19294" lon="3.10866">
        <ele>112.22692263539</ele>
        <time>2016-12-28T12:17:22Z</time>
      </trkpt>
      <trkpt lat="43.19296" lon="3.10882">
        <ele>112.04079980858</ele>
        <time>2016-12-28T12:17:31Z</time>
      </trkpt>
      <trkpt lat="43.19299" lon="3.10892">
        <ele>112.04079980858</ele>
        <time>2016-12-28T12:17:37Z</time>
      </trkpt>
      <trkpt lat="43.193" lon="3.10911">
        <ele>111.52726560023</ele>
        <time>2016-12-28T12:17:47Z</time>
      </trkpt>
      <trkpt lat="43.19296" lon="3.1093">
        <ele>111.13039890721</ele>
        <time>2016-12-28T12:18:12Z</time>
      </trkpt>
      <trkpt lat="43.19302" lon="3.10947">
        <ele>110.77136172933</ele>
        <time>2016-12-28T12:18:27Z</time>
      </trkpt>
      <trkpt lat="43.19304" lon="3.10956">
        <ele>110.77136172933</ele>
        <time>2016-12-28T12:18:32Z</time>
      </trkpt>
      <trkpt lat="43.19303" lon="3.10957">
        <ele>110.77136172933</ele>
        <time>2016-12-28T12:18:37Z</time>
      </trkpt>
      <trkpt lat="43.19304" lon="3.1096">
        <ele>110.49235290486</ele>
        <time>2016-12-28T12:18:42Z</time>
      </trkpt>
      <trkpt lat="43.19306" lon="3.10968">
        <ele>110.49235290486</ele>
        <time>2016-12-28T12:18:47Z</time>
      </trkpt>
      <trkpt lat="43.19308" lon="3.10974">
        <ele>110.23140895256</ele>
        <time>2016-12-28T12:18:52Z</time>
      </trkpt>
      <trkpt lat="43.19312" lon="3.10981">
        <ele>110.23140895256</ele>
        <time>2016-12-28T12:18:57Z</time>
      </trkpt>
      <trkpt lat="43.19317" lon="3.10993">
        <ele>109.87345960481</ele>
        <time>2016-12-28T12:19:12Z</time>
      </trkpt>
      <trkpt lat="43.1933" lon="3.11013">
        <ele>109.49953732368</ele>
        <time>2016-12-28T12:19:27Z</time>
      </trkpt>
      <trkpt lat="43.19348" lon="3.11037">
        <ele>109.17037378191</ele>
        <time>2016-12-28T12:19:45Z</time>
      </trkpt>
      <trkpt lat="43.1935" lon="3.11046">
        <ele>109.17037378191</ele>
        <time>2016-12-28T12:19:45Z</time>
      </trkpt>
      <trkpt lat="43.19357" lon="3.1109">
        <ele>108.72595701182</ele>
        <time>2016-12-28T12:20:08Z</time>
      </trkpt>
      <trkpt lat="43.19362" lon="3.11109">
        <ele>108.29217361669</ele>
        <time>2016-12-28T12:20:28Z</time>
      </trkpt>
      <trkpt lat="43.19369" lon="3.11136">
        <ele>108.14415585004</ele>
        <time>2016-12-28T12:20:38Z</time>
      </trkpt>
      <trkpt lat="43.19371" lon="3.1114">
        <ele>108.14415585004</ele>
        <time>2016-12-28T12:20:38Z</time>
      </trkpt>
      <trkpt lat="43.19377" lon="3.11187">
        <ele>108.33426105312</ele>
        <time>2016-12-28T12:21:05Z</time>
      </trkpt>
      <trkpt lat="43.19378" lon="3.11191">
        <ele>108.33426105312</ele>
        <time>2016-12-28T12:21:07Z</time>
      </trkpt>
      <trkpt lat="43.19374" lon="3.11255">
        <ele>108.17506865605</ele>
        <time>2016-12-28T12:21:41Z</time>
      </trkpt>
      <trkpt lat="43.19363" lon="3.11313">
        <ele>107.67912891701</ele>
        <time>2016-12-28T12:22:23Z</time>
      </trkpt>
      <trkpt lat="43.19356" lon="3.11327">
        <ele>107.11840226488</ele>
        <time>2016-12-28T12:22:27Z</time>
      </trkpt>
      <trkpt lat="43.19349" lon="3.11332">
        <ele>107.11840226488</ele>
        <time>2016-12-28T12:22:32Z</time>
      </trkpt>
      <trkpt lat="43.19343" lon="3.11336">
        <ele>106.67297737039</ele>
        <time>2016-12-28T12:22:37Z</time>
      </trkpt>
      <trkpt lat="43.19336" lon="3.11338">
        <ele>106.67297737039</ele>
        <time>2016-12-28T12:22:42Z</time>
      </trkpt>
      <trkpt lat="43.19329" lon="3.11334">
        <ele>106.336430188</ele>
        <time>2016-12-28T12:22:47Z</time>
      </trkpt>
      <trkpt lat="43.19326" lon="3.11327">
        <ele>106.336430188</ele>
        <time>2016-12-28T12:22:52Z</time>
      </trkpt>
      <trkpt lat="43.19299" lon="3.11299">
        <ele>105.92953737197</ele>
        <time>2016-12-28T12:23:24Z</time>
      </trkpt>
      <trkpt lat="43.19269" lon="3.11299">
        <ele>106.1078571285</ele>
        <time>2016-12-28T12:23:47Z</time>
      </trkpt>
      <trkpt lat="43.19247" lon="3.11301">
        <ele>106.65566654869</ele>
        <time>2016-12-28T12:24:05Z</time>
      </trkpt>
      <trkpt lat="43.19245" lon="3.11301">
        <ele>106.65566654869</ele>
        <time>2016-12-28T12:24:05Z</time>
      </trkpt>
      <trkpt lat="43.19226" lon="3.11303">
        <ele>107.38643239991</ele>
        <time>2016-12-28T12:24:18Z</time>
      </trkpt>
      <trkpt lat="43.192" lon="3.11296">
        <ele>108.29972064599</ele>
        <time>2016-12-28T12:24:37Z</time>
      </trkpt>
      <trkpt lat="43.19146" lon="3.113">
        <ele>109.35136132432</ele>
        <time>2016-12-28T12:25:24Z</time>
      </trkpt>
      <trkpt lat="43.1912" lon="3.11311">
        <ele>110.26944285334</ele>
        <time>2016-12-28T12:25:39Z</time>
      </trkpt>
      <trkpt lat="43.191" lon="3.1133">
        <ele>110.88886431964</ele>
        <time>2016-12-28T12:25:59Z</time>
      </trkpt>
      <trkpt lat="43.19098" lon="3.11334">
        <ele>110.88886431964</ele>
        <time>2016-12-28T12:26:02Z</time>
      </trkpt>
      <trkpt lat="43.19094" lon="3.11341">
        <ele>111.41777654925</ele>
        <time>2016-12-28T12:26:07Z</time>
      </trkpt>
      <trkpt lat="43.1909" lon="3.11349">
        <ele>111.41777654925</ele>
        <time>2016-12-28T12:26:12Z</time>
      </trkpt>
      <trkpt lat="43.19082" lon="3.11359">
        <ele>112.03488445212</ele>
        <time>2016-12-28T12:26:42Z</time>
      </trkpt>
      <trkpt lat="43.19081" lon="3.11363">
        <ele>112.03488445212</ele>
        <time>2016-12-28T12:27:04Z</time>
      </trkpt>
      <trkpt lat="43.19079" lon="3.11365">
        <ele>112.03488445212</ele>
        <time>2016-12-28T12:27:07Z</time>
      </trkpt>
      <trkpt lat="43.19057" lon="3.11397">
        <ele>112.77582045213</ele>
        <time>2016-12-28T12:28:00Z</time>
      </trkpt>
      <trkpt lat="43.19047" lon="3.1141">
        <ele>113.6012041561</ele>
        <time>2016-12-28T12:28:00Z</time>
      </trkpt>
      <trkpt lat="43.18927" lon="3.11526">
        <ele>113.84022004458</ele>
        <time>2016-12-28T12:30:00Z</time>
      </trkpt>
      <trkpt lat="43.18874" lon="3.11577">
        <ele>113.63679743129</ele>
        <time>2016-12-28T12:30:42Z</time>
      </trkpt>
      <trkpt lat="43.18868" lon="3.1158">
        <ele>113.63679743129</ele>
        <time>2016-12-28T12:30:47Z</time>
      </trkpt>
      <trkpt lat="43.18855" lon="3.11583">
        <ele>113.29848255073</ele>
        <time>2016-12-28T12:30:58Z</time>
      </trkpt>
      <trkpt lat="43.18822" lon="3.11584">
        <ele>112.72150807133</ele>
        <time>2016-12-28T12:31:32Z</time>
      </trkpt>
      <trkpt lat="43.18783" lon="3.11596">
        <ele>112.19951032124</ele>
        <time>2016-12-28T12:31:54Z</time>
      </trkpt>
      <trkpt lat="43.18731" lon="3.11628">
        <ele>112.43673877249</ele>
        <time>2016-12-28T12:32:38Z</time>
      </trkpt>
      <trkpt lat="43.18723" lon="3.11632">
        <ele>112.43673877249</ele>
        <time>2016-12-28T12:32:44Z</time>
      </trkpt>
      <trkpt lat="43.18711" lon="3.11645">
        <ele>112.39744542608</ele>
        <time>2016-12-28T12:32:55Z</time>
      </trkpt>
      <trkpt lat="43.18694" lon="3.11659">
        <ele>112.4774038321</ele>
        <time>2016-12-28T12:33:12Z</time>
      </trkpt>
      <trkpt lat="43.18691" lon="3.1166">
        <ele>112.4774038321</ele>
        <time>2016-12-28T12:33:17Z</time>
      </trkpt>
      <trkpt lat="43.18691" lon="3.1166">
        <ele>112.4774038321</ele>
        <time>2016-12-28T12:33:22Z</time>
      </trkpt>
      <trkpt lat="43.18687" lon="3.1166">
        <ele>112.4774038321</ele>
        <time>2016-12-28T12:33:27Z</time>
      </trkpt>
      <trkpt lat="43.18682" lon="3.11661">
        <ele>112.5241618777</ele>
        <time>2016-12-28T12:33:32Z</time>
      </trkpt>
      <trkpt lat="43.18676" lon="3.11658">
        <ele>112.5241618777</ele>
        <time>2016-12-28T12:33:37Z</time>
      </trkpt>
      <trkpt lat="43.1867" lon="3.11656">
        <ele>112.68477576023</ele>
        <time>2016-12-28T12:33:49Z</time>
      </trkpt>
      <trkpt lat="43.18661" lon="3.11654">
        <ele>112.68477576023</ele>
        <time>2016-12-28T12:33:49Z</time>
      </trkpt>
      <trkpt lat="43.18647" lon="3.1165">
        <ele>112.95105620589</ele>
        <time>2016-12-28T12:34:06Z</time>
      </trkpt>
      <trkpt lat="43.18639" lon="3.11649">
        <ele>112.95105620589</ele>
        <time>2016-12-28T12:34:06Z</time>
      </trkpt>
      <trkpt lat="43.18601" lon="3.11639">
        <ele>112.9548280427</ele>
        <time>2016-12-28T12:34:39Z</time>
      </trkpt>
      <trkpt lat="43.18597" lon="3.11638">
        <ele>112.9548280427</ele>
        <time>2016-12-28T12:34:42Z</time>
      </trkpt>
      <trkpt lat="43.18542" lon="3.11601">
        <ele>113.99856944808</ele>
        <time>2016-12-28T12:36:09Z</time>
      </trkpt>
      <trkpt lat="43.18537" lon="3.11601">
        <ele>113.99856944808</ele>
        <time>2016-12-28T12:36:44Z</time>
      </trkpt>
      <trkpt lat="43.18515" lon="3.11616">
        <ele>114.80742440894</ele>
        <time>2016-12-28T12:41:08Z</time>
      </trkpt>
      <trkpt lat="43.18476" lon="3.11629">
        <ele>115.18080798033</ele>
        <time>2016-12-28T12:41:38Z</time>
      </trkpt>
      <trkpt lat="43.18428" lon="3.11656">
        <ele>114.45852148219</ele>
        <time>2016-12-28T12:42:29Z</time>
      </trkpt>
      <trkpt lat="43.18419" lon="3.11661">
        <ele>113.5306978729</ele>
        <time>2016-12-28T12:42:29Z</time>
      </trkpt>
      <trkpt lat="43.18408" lon="3.11666">
        <ele>112.53091347556</ele>
        <time>2016-12-28T12:42:40Z</time>
      </trkpt>
      <trkpt lat="43.18407" lon="3.11667">
        <ele>112.53091347556</ele>
        <time>2016-12-28T12:42:42Z</time>
      </trkpt>
      <trkpt lat="43.18404" lon="3.11671">
        <ele>112.53091347556</ele>
        <time>2016-12-28T12:42:47Z</time>
      </trkpt>
      <trkpt lat="43.18396" lon="3.11675">
        <ele>111.52547528488</ele>
        <time>2016-12-28T12:43:00Z</time>
      </trkpt>
      <trkpt lat="43.18387" lon="3.11679">
        <ele>111.52547528488</ele>
        <time>2016-12-28T12:43:23Z</time>
      </trkpt>
      <trkpt lat="43.18404" lon="3.11675">
        <ele>110.31641177963</ele>
        <time>2016-12-28T12:43:36Z</time>
      </trkpt>
      <trkpt lat="43.18404" lon="3.11675">
        <ele>110.31641177963</ele>
        <time>2016-12-28T12:43:45Z</time>
      </trkpt>
      <trkpt lat="43.18403" lon="3.11673">
        <ele>110.31641177963</ele>
        <time>2016-12-28T12:44:22Z</time>
      </trkpt>
      <trkpt lat="43.18403" lon="3.11671">
        <ele>110.31641177963</ele>
        <time>2016-12-28T12:44:47Z</time>
      </trkpt>
      <trkpt lat="43.18425" lon="3.11659">
        <ele>109.26845742992</ele>
        <time>2016-12-28T12:45:02Z</time>
      </trkpt>
      <trkpt lat="43.18494" lon="3.1164">
        <ele>108.4452502443</ele>
        <time>2016-12-28T12:46:00Z</time>
      </trkpt>
      <trkpt lat="43.18514" lon="3.11634">
        <ele>108.38064517585</ele>
        <time>2016-12-28T12:46:17Z</time>
      </trkpt>
      <trkpt lat="43.18518" lon="3.11628">
        <ele>108.38064517585</ele>
        <time>2016-12-28T12:46:22Z</time>
      </trkpt>
      <trkpt lat="43.18522" lon="3.11624">
        <ele>108.68802566147</ele>
        <time>2016-12-28T12:46:27Z</time>
      </trkpt>
      <trkpt lat="43.18525" lon="3.11619">
        <ele>108.68802566147</ele>
        <time>2016-12-28T12:46:32Z</time>
      </trkpt>
      <trkpt lat="43.18533" lon="3.11615">
        <ele>109.22425223094</ele>
        <time>2016-12-28T12:46:42Z</time>
      </trkpt>
      <trkpt lat="43.18539" lon="3.11614">
        <ele>109.22425223094</ele>
        <time>2016-12-28T12:46:47Z</time>
      </trkpt>
      <trkpt lat="43.18544" lon="3.11614">
        <ele>109.81278161865</ele>
        <time>2016-12-28T12:46:52Z</time>
      </trkpt>
      <trkpt lat="43.18571" lon="3.11647">
        <ele>110.82306723028</ele>
        <time>2016-12-28T12:47:22Z</time>
      </trkpt>
      <trkpt lat="43.18578" lon="3.11673">
        <ele>111.78918756321</ele>
        <time>2016-12-28T12:47:37Z</time>
      </trkpt>
      <trkpt lat="43.18589" lon="3.11712">
        <ele>112.71188426439</ele>
        <time>2016-12-28T12:48:08Z</time>
      </trkpt>
      <trkpt lat="43.18593" lon="3.11723">
        <ele>112.71188426439</ele>
        <time>2016-12-28T12:48:08Z</time>
      </trkpt>
      <trkpt lat="43.18605" lon="3.11775">
        <ele>113.60636524302</ele>
        <time>2016-12-28T12:48:37Z</time>
      </trkpt>
      <trkpt lat="43.18607" lon="3.11786">
        <ele>113.60636524302</ele>
        <time>2016-12-28T12:48:45Z</time>
      </trkpt>
      <trkpt lat="43.18619" lon="3.11858">
        <ele>113.8094726033</ele>
        <time>2016-12-28T12:50:00Z</time>
      </trkpt>
      <trkpt lat="43.18618" lon="3.11871">
        <ele>113.8094726033</ele>
        <time>2016-12-28T12:50:52Z</time>
      </trkpt>
      <trkpt lat="43.18619" lon="3.1188">
        <ele>114.16422696253</ele>
        <time>2016-12-28T12:50:57Z</time>
      </trkpt>
      <trkpt lat="43.1862" lon="3.11901">
        <ele>114.4136993455</ele>
        <time>2016-12-28T12:51:07Z</time>
      </trkpt>
      <trkpt lat="43.1862" lon="3.11932">
        <ele>114.52189196013</ele>
        <time>2016-12-28T12:51:25Z</time>
      </trkpt>
      <trkpt lat="43.18622" lon="3.11995">
        <ele>114.57114364006</ele>
        <time>2016-12-28T12:52:00Z</time>
      </trkpt>
      <trkpt lat="43.18623" lon="3.12018">
        <ele>114.65232832085</ele>
        <time>2016-12-28T12:52:20Z</time>
      </trkpt>
      <trkpt lat="43.18621" lon="3.12031">
        <ele>114.7919173101</ele>
        <time>2016-12-28T12:52:20Z</time>
      </trkpt>
      <trkpt lat="43.18617" lon="3.12045">
        <ele>114.91340222375</ele>
        <time>2016-12-28T12:52:30Z</time>
      </trkpt>
      <trkpt lat="43.18517" lon="3.12161">
        <ele>116.73293456259</ele>
        <time>2016-12-28T12:54:25Z</time>
      </trkpt>
      <trkpt lat="43.18506" lon="3.12165">
        <ele>118.56452330239</ele>
        <time>2016-12-28T12:54:25Z</time>
      </trkpt>
      <trkpt lat="43.18485" lon="3.1217">
        <ele>120.46006377581</ele>
        <time>2016-12-28T12:54:41Z</time>
      </trkpt>
      <trkpt lat="43.18484" lon="3.12169">
        <ele>120.46006377581</ele>
        <time>2016-12-28T12:54:42Z</time>
      </trkpt>
      <trkpt lat="43.18476" lon="3.1217">
        <ele>122.23691452947</ele>
        <time>2016-12-28T12:54:47Z</time>
      </trkpt>
      <trkpt lat="43.18381" lon="3.12142">
        <ele>123.82710627598</ele>
        <time>2016-12-28T12:56:00Z</time>
      </trkpt>
      <trkpt lat="43.18366" lon="3.12131">
        <ele>125.58616424471</ele>
        <time>2016-12-28T12:56:22Z</time>
      </trkpt>
      <trkpt lat="43.18362" lon="3.12128">
        <ele>125.58616424471</ele>
        <time>2016-12-28T12:56:47Z</time>
      </trkpt>
      <trkpt lat="43.18276" lon="3.12061">
        <ele>127.1225311428</ele>
        <time>2016-12-28T12:58:09Z</time>
      </trkpt>
      <trkpt lat="43.18235" lon="3.12034">
        <ele>128.63614368332</ele>
        <time>2016-12-28T12:58:39Z</time>
      </trkpt>
      <trkpt lat="43.18226" lon="3.12028">
        <ele>130.0097594294</ele>
        <time>2016-12-28T12:58:42Z</time>
      </trkpt>
      <trkpt lat="43.18208" lon="3.12003">
        <ele>131.68284740591</ele>
        <time>2016-12-28T12:59:08Z</time>
      </trkpt>
      <trkpt lat="43.18209" lon="3.11999">
        <ele>131.68284740591</ele>
        <time>2016-12-28T12:59:08Z</time>
      </trkpt>
      <trkpt lat="43.1821" lon="3.12001">
        <ele>131.68284740591</ele>
        <time>2016-12-28T12:59:32Z</time>
      </trkpt>
      <trkpt lat="43.18199" lon="3.12007">
        <ele>133.15394012697</ele>
        <time>2016-12-28T12:59:58Z</time>
      </trkpt>
      <trkpt lat="43.1819" lon="3.12004">
        <ele>134.46345473562</ele>
        <time>2016-12-28T12:59:58Z</time>
      </trkpt>
      <trkpt lat="43.18142" lon="3.12019">
        <ele>135.27469624197</ele>
        <time>2016-12-28T13:00:39Z</time>
      </trkpt>
      <trkpt lat="43.18134" lon="3.12022">
        <ele>135.27469624197</ele>
        <time>2016-12-28T13:00:39Z</time>
      </trkpt>
      <trkpt lat="43.18123" lon="3.12025">
        <ele>135.98333896957</ele>
        <time>2016-12-28T13:00:56Z</time>
      </trkpt>
      <trkpt lat="43.18112" lon="3.12027">
        <ele>136.62491421004</ele>
        <time>2016-12-28T13:00:56Z</time>
      </trkpt>
      <trkpt lat="43.18034" lon="3.12078">
        <ele>137.80906451025</ele>
        <time>2016-12-28T13:02:08Z</time>
      </trkpt>
      <trkpt lat="43.18026" lon="3.12087">
        <ele>138.94632178785</ele>
        <time>2016-12-28T13:02:08Z</time>
      </trkpt>
      <trkpt lat="43.1799" lon="3.1213">
        <ele>139.96630124078</ele>
        <time>2016-12-28T13:02:42Z</time>
      </trkpt>
      <trkpt lat="43.17979" lon="3.12151">
        <ele>140.89066485705</ele>
        <time>2016-12-28T13:03:03Z</time>
      </trkpt>
      <trkpt lat="43.17966" lon="3.12176">
        <ele>141.62454106053</ele>
        <time>2016-12-28T13:03:13Z</time>
      </trkpt>
      <trkpt lat="43.17965" lon="3.12178">
        <ele>141.62454106053</ele>
        <time>2016-12-28T13:03:13Z</time>
      </trkpt>
      <trkpt lat="43.17959" lon="3.12192">
        <ele>142.22474826638</ele>
        <time>2016-12-28T13:03:21Z</time>
      </trkpt>
      <trkpt lat="43.17954" lon="3.12204">
        <ele>142.68673235893</ele>
        <time>2016-12-28T13:03:29Z</time>
      </trkpt>
      <trkpt lat="43.17941" lon="3.12255">
        <ele>142.99231571652</ele>
        <time>2016-12-28T13:03:57Z</time>
      </trkpt>
      <trkpt lat="43.17937" lon="3.12289">
        <ele>143.19720921369</ele>
        <time>2016-12-28T13:04:17Z</time>
      </trkpt>
      <trkpt lat="43.17931" lon="3.12334">
        <ele>143.41100994444</ele>
        <time>2016-12-28T13:04:42Z</time>
      </trkpt>
      <trkpt lat="43.1793" lon="3.12366">
        <ele>143.38941623587</ele>
        <time>2016-12-28T13:05:02Z</time>
      </trkpt>
      <trkpt lat="43.17918" lon="3.12456">
        <ele>143.51203618767</ele>
        <time>2016-12-28T13:06:00Z</time>
      </trkpt>
      <trkpt lat="43.17909" lon="3.1252">
        <ele>144.23109489137</ele>
        <time>2016-12-28T13:06:40Z</time>
      </trkpt>
      <trkpt lat="43.17909" lon="3.12528">
        <ele>144.23109489137</ele>
        <time>2016-12-28T13:06:40Z</time>
      </trkpt>
      <trkpt lat="43.17907" lon="3.12534">
        <ele>144.95516977705</ele>
        <time>2016-12-28T13:06:58Z</time>
      </trkpt>
      <trkpt lat="43.17903" lon="3.12569">
        <ele>145.75596784129</ele>
        <time>2016-12-28T13:07:10Z</time>
      </trkpt>
      <trkpt lat="43.17895" lon="3.12634">
        <ele>147.03118765524</ele>
        <time>2016-12-28T13:08:00Z</time>
      </trkpt>
      <trkpt lat="43.17894" lon="3.12644">
        <ele>147.03118765524</ele>
        <time>2016-12-28T13:08:00Z</time>
      </trkpt>
      <trkpt lat="43.17888" lon="3.12676">
        <ele>148.44185667195</ele>
        <time>2016-12-28T13:08:22Z</time>
      </trkpt>
      <trkpt lat="43.17877" lon="3.12703">
        <ele>149.94735546285</ele>
        <time>2016-12-28T13:08:40Z</time>
      </trkpt>
      <trkpt lat="43.17875" lon="3.12705">
        <ele>149.94735546285</ele>
        <time>2016-12-28T13:08:42Z</time>
      </trkpt>
      <trkpt lat="43.17867" lon="3.1273">
        <ele>151.66832942607</ele>
        <time>2016-12-28T13:09:24Z</time>
      </trkpt>
      <trkpt lat="43.17865" lon="3.1273">
        <ele>151.66832942607</ele>
        <time>2016-12-28T13:12:05Z</time>
      </trkpt>
      <trkpt lat="43.17852" lon="3.12731">
        <ele>153.11071884543</ele>
        <time>2016-12-28T13:12:14Z</time>
      </trkpt>
      <trkpt lat="43.17851" lon="3.12732">
        <ele>153.11071884543</ele>
        <time>2016-12-28T13:12:23Z</time>
      </trkpt>
      <trkpt lat="43.17821" lon="3.12741">
        <ele>154.59577219393</ele>
        <time>2016-12-28T13:12:42Z</time>
      </trkpt>
      <trkpt lat="43.17794" lon="3.12729">
        <ele>156.03195618097</ele>
        <time>2016-12-28T13:13:13Z</time>
      </trkpt>
      <trkpt lat="43.17704" lon="3.12669">
        <ele>158.1848956516</ele>
        <time>2016-12-28T13:14:31Z</time>
      </trkpt>
      <trkpt lat="43.17694" lon="3.12661">
        <ele>160.26325177251</ele>
        <time>2016-12-28T13:14:31Z</time>
      </trkpt>
      <trkpt lat="43.17682" lon="3.12654">
        <ele>162.24022151284</ele>
        <time>2016-12-28T13:14:42Z</time>
      </trkpt>
      <trkpt lat="43.17676" lon="3.1265">
        <ele>162.24022151284</ele>
        <time>2016-12-28T13:14:47Z</time>
      </trkpt>
      <trkpt lat="43.17667" lon="3.12642">
        <ele>164.14895568894</ele>
        <time>2016-12-28T13:15:00Z</time>
      </trkpt>
      <trkpt lat="43.17573" lon="3.12549">
        <ele>167.47594798711</ele>
        <time>2016-12-28T13:16:32Z</time>
      </trkpt>
      <trkpt lat="43.17564" lon="3.12538">
        <ele>170.64030970166</ele>
        <time>2016-12-28T13:16:32Z</time>
      </trkpt>
      <trkpt lat="43.17556" lon="3.12525">
        <ele>173.59011054457</ele>
        <time>2016-12-28T13:16:45Z</time>
      </trkpt>
      <trkpt lat="43.17534" lon="3.12479">
        <ele>176.52291804716</ele>
        <time>2016-12-28T13:17:23Z</time>
      </trkpt>
      <trkpt lat="43.17526" lon="3.12465">
        <ele>179.18960302766</ele>
        <time>2016-12-28T13:17:23Z</time>
      </trkpt>
      <trkpt lat="43.17521" lon="3.12454">
        <ele>181.56194921348</ele>
        <time>2016-12-28T13:17:31Z</time>
      </trkpt>
      <trkpt lat="43.17508" lon="3.12441">
        <ele>183.75886483975</ele>
        <time>2016-12-28T13:17:56Z</time>
      </trkpt>
      <trkpt lat="43.17493" lon="3.12435">
        <ele>185.81907732199</ele>
        <time>2016-12-28T13:18:15Z</time>
      </trkpt>
      <trkpt lat="43.17492" lon="3.12435">
        <ele>185.81907732199</ele>
        <time>2016-12-28T13:18:22Z</time>
      </trkpt>
      <trkpt lat="43.17488" lon="3.12436">
        <ele>185.81907732199</ele>
        <time>2016-12-28T13:18:22Z</time>
      </trkpt>
      <trkpt lat="43.17472" lon="3.12432">
        <ele>187.56280355664</ele>
        <time>2016-12-28T13:18:40Z</time>
      </trkpt>
      <trkpt lat="43.17462" lon="3.12432">
        <ele>189.15592635954</ele>
        <time>2016-12-28T13:18:55Z</time>
      </trkpt>
      <trkpt lat="43.17459" lon="3.12432">
        <ele>189.15592635954</ele>
        <time>2016-12-28T13:18:55Z</time>
      </trkpt>
      <trkpt lat="43.17426" lon="3.12405">
        <ele>190.23387634233</ele>
        <time>2016-12-28T13:20:45Z</time>
      </trkpt>
      <trkpt lat="43.17423" lon="3.12408">
        <ele>190.23387634233</ele>
        <time>2016-12-28T13:20:49Z</time>
      </trkpt>
      <trkpt lat="43.17422" lon="3.1241">
        <ele>190.23387634233</ele>
        <time>2016-12-28T13:21:03Z</time>
      </trkpt>
      <trkpt lat="43.17428" lon="3.12413">
        <ele>190.79187006478</ele>
        <time>2016-12-28T13:24:08Z</time>
      </trkpt>
      <trkpt lat="43.17429" lon="3.12413">
        <ele>190.79187006478</ele>
        <time>2016-12-28T13:24:12Z</time>
      </trkpt>
      <trkpt lat="43.17445" lon="3.12405">
        <ele>191.38906229435</ele>
        <time>2016-12-28T13:24:49Z</time>
      </trkpt>
      <trkpt lat="43.17448" lon="3.12401">
        <ele>191.38906229435</ele>
        <time>2016-12-28T13:24:49Z</time>
      </trkpt>
      <trkpt lat="43.17481" lon="3.12361">
        <ele>192.31292879401</ele>
        <time>2016-12-28T13:26:05Z</time>
      </trkpt>
      <trkpt lat="43.17483" lon="3.12359">
        <ele>192.31292879401</ele>
        <time>2016-12-28T13:26:05Z</time>
      </trkpt>
      <trkpt lat="43.17483" lon="3.1236">
        <ele>192.31292879401</ele>
        <time>2016-12-28T13:26:20Z</time>
      </trkpt>
      <trkpt lat="43.17488" lon="3.12361">
        <ele>192.31292879401</ele>
        <time>2016-12-28T13:27:42Z</time>
      </trkpt>
      <trkpt lat="43.17489" lon="3.12365">
        <ele>192.34463724906</ele>
        <time>2016-12-28T13:27:47Z</time>
      </trkpt>
      <trkpt lat="43.17491" lon="3.12369">
        <ele>192.34463724906</ele>
        <time>2016-12-28T13:27:52Z</time>
      </trkpt>
      <trkpt lat="43.17492" lon="3.12373">
        <ele>192.34463724906</ele>
        <time>2016-12-28T13:27:57Z</time>
      </trkpt>
      <trkpt lat="43.17494" lon="3.12377">
        <ele>192.31736257242</ele>
        <time>2016-12-28T13:28:02Z</time>
      </trkpt>
      <trkpt lat="43.17496" lon="3.12382">
        <ele>192.31736257242</ele>
        <time>2016-12-28T13:28:07Z</time>
      </trkpt>
      <trkpt lat="43.17498" lon="3.12387">
        <ele>192.31736257242</ele>
        <time>2016-12-28T13:28:12Z</time>
      </trkpt>
      <trkpt lat="43.175" lon="3.12392">
        <ele>192.21067319878</ele>
        <time>2016-12-28T13:28:17Z</time>
      </trkpt>
      <trkpt lat="43.175" lon="3.12393">
        <ele>192.21067319878</ele>
        <time>2016-12-28T13:28:22Z</time>
      </trkpt>
      <trkpt lat="43.17502" lon="3.12396">
        <ele>192.21067319878</ele>
        <time>2016-12-28T13:28:42Z</time>
      </trkpt>
      <trkpt lat="43.17504" lon="3.12401">
        <ele>192.21067319878</ele>
        <time>2016-12-28T13:28:47Z</time>
      </trkpt>
      <trkpt lat="43.17506" lon="3.12408">
        <ele>191.93383490968</ele>
        <time>2016-12-28T13:28:52Z</time>
      </trkpt>
      <trkpt lat="43.17509" lon="3.12414">
        <ele>191.93383490968</ele>
        <time>2016-12-28T13:28:57Z</time>
      </trkpt>
      <trkpt lat="43.17512" lon="3.1242">
        <ele>191.46091402099</ele>
        <time>2016-12-28T13:29:02Z</time>
      </trkpt>
      <trkpt lat="43.17514" lon="3.12426">
        <ele>191.46091402099</ele>
        <time>2016-12-28T13:29:07Z</time>
      </trkpt>
      <trkpt lat="43.17517" lon="3.12433">
        <ele>190.9557744401</ele>
        <time>2016-12-28T13:29:12Z</time>
      </trkpt>
      <trkpt lat="43.1752" lon="3.12439">
        <ele>190.9557744401</ele>
        <time>2016-12-28T13:29:17Z</time>
      </trkpt>
      <trkpt lat="43.17524" lon="3.12444">
        <ele>190.36856002354</ele>
        <time>2016-12-28T13:29:22Z</time>
      </trkpt>
      <trkpt lat="43.17526" lon="3.1245">
        <ele>190.36856002354</ele>
        <time>2016-12-28T13:29:27Z</time>
      </trkpt>
      <trkpt lat="43.17529" lon="3.12456">
        <ele>189.69650807204</ele>
        <time>2016-12-28T13:29:32Z</time>
      </trkpt>
      <trkpt lat="43.17532" lon="3.12463">
        <ele>189.69650807204</ele>
        <time>2016-12-28T13:29:37Z</time>
      </trkpt>
      <trkpt lat="43.17534" lon="3.12469">
        <ele>188.90842737321</ele>
        <time>2016-12-28T13:29:42Z</time>
      </trkpt>
      <trkpt lat="43.17537" lon="3.12476">
        <ele>188.90842737321</ele>
        <time>2016-12-28T13:29:47Z</time>
      </trkpt>
      <trkpt lat="43.17539" lon="3.1248">
        <ele>188.07656007565</ele>
        <time>2016-12-28T13:29:58Z</time>
      </trkpt>
      <trkpt lat="43.17552" lon="3.12509">
        <ele>187.31112317973</ele>
        <time>2016-12-28T13:30:14Z</time>
      </trkpt>
      <trkpt lat="43.17553" lon="3.12512">
        <ele>187.31112317973</ele>
        <time>2016-12-28T13:30:17Z</time>
      </trkpt>
      <trkpt lat="43.17555" lon="3.12515">
        <ele>187.31112317973</ele>
        <time>2016-12-28T13:30:22Z</time>
      </trkpt>
      <trkpt lat="43.17558" lon="3.12522">
        <ele>186.48338606886</ele>
        <time>2016-12-28T13:30:27Z</time>
      </trkpt>
      <trkpt lat="43.17571" lon="3.12538">
        <ele>185.50297299611</ele>
        <time>2016-12-28T13:30:41Z</time>
      </trkpt>
      <trkpt lat="43.17609" lon="3.12582">
        <ele>183.78207571858</ele>
        <time>2016-12-28T13:31:29Z</time>
      </trkpt>
      <trkpt lat="43.17612" lon="3.12587">
        <ele>183.78207571858</ele>
        <time>2016-12-28T13:31:29Z</time>
      </trkpt>
      <trkpt lat="43.17633" lon="3.12605">
        <ele>182.16148789636</ele>
        <time>2016-12-28T13:31:51Z</time>
      </trkpt>
      <trkpt lat="43.17692" lon="3.12649">
        <ele>180.38222181849</ele>
        <time>2016-12-28T13:32:42Z</time>
      </trkpt>
      <trkpt lat="43.1771" lon="3.12665">
        <ele>178.85311227906</ele>
        <time>2016-12-28T13:33:00Z</time>
      </trkpt>
      <trkpt lat="43.17719" lon="3.12673">
        <ele>177.39006614179</ele>
        <time>2016-12-28T13:33:06Z</time>
      </trkpt>
      <trkpt lat="43.1772" lon="3.12674">
        <ele>177.39006614179</ele>
        <time>2016-12-28T13:33:07Z</time>
      </trkpt>
      <trkpt lat="43.17732" lon="3.12681">
        <ele>175.90862506358</ele>
        <time>2016-12-28T13:33:22Z</time>
      </trkpt>
      <trkpt lat="43.17738" lon="3.12686">
        <ele>175.90862506358</ele>
        <time>2016-12-28T13:33:22Z</time>
      </trkpt>
      <trkpt lat="43.17765" lon="3.1271">
        <ele>174.48893058017</ele>
        <time>2016-12-28T13:33:47Z</time>
      </trkpt>
      <trkpt lat="43.17806" lon="3.12735">
        <ele>172.84460065976</ele>
        <time>2016-12-28T13:34:29Z</time>
      </trkpt>
      <trkpt lat="43.17814" lon="3.12738">
        <ele>172.84460065976</ele>
        <time>2016-12-28T13:34:29Z</time>
      </trkpt>
      <trkpt lat="43.1783" lon="3.12741">
        <ele>170.43691702717</ele>
        <time>2016-12-28T13:34:42Z</time>
      </trkpt>
      <trkpt lat="43.17851" lon="3.12729">
        <ele>167.71980966641</ele>
        <time>2016-12-28T13:35:03Z</time>
      </trkpt>
      <trkpt lat="43.17874" lon="3.12704">
        <ele>164.76865387891</ele>
        <time>2016-12-28T13:35:28Z</time>
      </trkpt>
      <trkpt lat="43.17885" lon="3.12718">
        <ele>161.89871208318</ele>
        <time>2016-12-28T13:35:45Z</time>
      </trkpt>
      <trkpt lat="43.17892" lon="3.12764">
        <ele>159.17104938162</ele>
        <time>2016-12-28T13:36:06Z</time>
      </trkpt>
      <trkpt lat="43.17893" lon="3.12765">
        <ele>159.17104938162</ele>
        <time>2016-12-28T13:36:07Z</time>
      </trkpt>
      <trkpt lat="43.17894" lon="3.12773">
        <ele>159.17104938162</ele>
        <time>2016-12-28T13:36:17Z</time>
      </trkpt>
      <trkpt lat="43.17896" lon="3.12776">
        <ele>156.94423744478</ele>
        <time>2016-12-28T13:36:47Z</time>
      </trkpt>
      <trkpt lat="43.17896" lon="3.12776">
        <ele>156.94423744478</ele>
        <time>2016-12-28T13:36:52Z</time>
      </trkpt>
      <trkpt lat="43.17896" lon="3.12779">
        <ele>156.94423744478</ele>
        <time>2016-12-28T13:37:12Z</time>
      </trkpt>
      <trkpt lat="43.17896" lon="3.12785">
        <ele>156.94423744478</ele>
        <time>2016-12-28T13:37:17Z</time>
      </trkpt>
      <trkpt lat="43.17901" lon="3.12893">
        <ele>153.51688390793</ele>
        <time>2016-12-28T13:38:42Z</time>
      </trkpt>
      <trkpt lat="43.17903" lon="3.12901">
        <ele>153.51688390793</ele>
        <time>2016-12-28T13:38:47Z</time>
      </trkpt>
      <trkpt lat="43.17794" lon="3.12951">
        <ele>148.22358570155</ele>
        <time>2016-12-28T13:40:42Z</time>
      </trkpt>
      <trkpt lat="43.17793" lon="3.12957">
        <ele>148.22358570155</ele>
        <time>2016-12-28T13:40:47Z</time>
      </trkpt>
      <trkpt lat="43.17778" lon="3.13017">
        <ele>142.75855729365</ele>
        <time>2016-12-28T13:41:22Z</time>
      </trkpt>
      <trkpt lat="43.17776" lon="3.13027">
        <ele>142.75855729365</ele>
        <time>2016-12-28T13:41:27Z</time>
      </trkpt>
      <trkpt lat="43.17774" lon="3.13036">
        <ele>137.3803341985</ele>
        <time>2016-12-28T13:41:32Z</time>
      </trkpt>
      <trkpt lat="43.17771" lon="3.13044">
        <ele>137.3803341985</ele>
        <time>2016-12-28T13:41:37Z</time>
      </trkpt>
      <trkpt lat="43.17769" lon="3.13052">
        <ele>132.19820304484</ele>
        <time>2016-12-28T13:41:42Z</time>
      </trkpt>
      <trkpt lat="43.17767" lon="3.1306">
        <ele>132.19820304484</ele>
        <time>2016-12-28T13:41:47Z</time>
      </trkpt>
      <trkpt lat="43.17765" lon="3.1307">
        <ele>127.19724986651</ele>
        <time>2016-12-28T13:41:52Z</time>
      </trkpt>
      <trkpt lat="43.17764" lon="3.13077">
        <ele>127.19724986651</ele>
        <time>2016-12-28T13:41:57Z</time>
      </trkpt>
      <trkpt lat="43.17762" lon="3.13086">
        <ele>122.47808713824</ele>
        <time>2016-12-28T13:42:02Z</time>
      </trkpt>
      <trkpt lat="43.1776" lon="3.13093">
        <ele>122.47808713824</ele>
        <time>2016-12-28T13:42:07Z</time>
      </trkpt>
      <trkpt lat="43.17759" lon="3.13099">
        <ele>118.19042850235</ele>
        <time>2016-12-28T13:42:12Z</time>
      </trkpt>
      <trkpt lat="43.17757" lon="3.13101">
        <ele>118.19042850235</ele>
        <time>2016-12-28T13:42:17Z</time>
      </trkpt>
      <trkpt lat="43.17752" lon="3.13101">
        <ele>118.19042850235</ele>
        <time>2016-12-28T13:42:22Z</time>
      </trkpt>
      <trkpt lat="43.17745" lon="3.13101">
        <ele>114.42817667765</ele>
        <time>2016-12-28T13:42:27Z</time>
      </trkpt>
      <trkpt lat="43.17736" lon="3.13102">
        <ele>114.42817667765</ele>
        <time>2016-12-28T13:42:32Z</time>
      </trkpt>
      <trkpt lat="43.17729" lon="3.13103">
        <ele>111.11796846169</ele>
        <time>2016-12-28T13:42:37Z</time>
      </trkpt>
      <trkpt lat="43.17724" lon="3.13106">
        <ele>111.11796846169</ele>
        <time>2016-12-28T13:42:42Z</time>
      </trkpt>
      <trkpt lat="43.1772" lon="3.13107">
        <ele>108.20460364907</ele>
        <time>2016-12-28T13:42:50Z</time>
      </trkpt>
      <trkpt lat="43.17711" lon="3.13113">
        <ele>105.73633959756</ele>
        <time>2016-12-28T13:43:26Z</time>
      </trkpt>
      <trkpt lat="43.17667" lon="3.1312">
        <ele>103.49688922856</ele>
        <time>2016-12-28T13:44:42Z</time>
      </trkpt>
      <trkpt lat="43.17655" lon="3.13124">
        <ele>101.55868695298</ele>
        <time>2016-12-28T13:44:50Z</time>
      </trkpt>
      <trkpt lat="43.17616" lon="3.13164">
        <ele>99.7859263868</ele>
        <time>2016-12-28T13:45:31Z</time>
      </trkpt>
      <trkpt lat="43.17578" lon="3.13283">
        <ele>98.498758310184</ele>
        <time>2016-12-28T13:46:42Z</time>
      </trkpt>
      <trkpt lat="43.17555" lon="3.13276">
        <ele>97.430141228941</ele>
        <time>2016-12-28T13:47:02Z</time>
      </trkpt>
      <trkpt lat="43.17552" lon="3.13276">
        <ele>97.430141228941</ele>
        <time>2016-12-28T13:47:22Z</time>
      </trkpt>
      <trkpt lat="43.17545" lon="3.13277">
        <ele>96.432659241932</ele>
        <time>2016-12-28T13:47:27Z</time>
      </trkpt>
      <trkpt lat="43.17538" lon="3.13275">
        <ele>96.432659241932</ele>
        <time>2016-12-28T13:47:32Z</time>
      </trkpt>
      <trkpt lat="43.17532" lon="3.13274">
        <ele>95.772805359733</ele>
        <time>2016-12-28T13:47:37Z</time>
      </trkpt>
      <trkpt lat="43.17525" lon="3.1327">
        <ele>95.772805359733</ele>
        <time>2016-12-28T13:47:42Z</time>
      </trkpt>
      <trkpt lat="43.17519" lon="3.13263">
        <ele>95.379297557549</ele>
        <time>2016-12-28T13:47:47Z</time>
      </trkpt>
      <trkpt lat="43.17513" lon="3.13257">
        <ele>95.379297557549</ele>
        <time>2016-12-28T13:47:52Z</time>
      </trkpt>
      <trkpt lat="43.17505" lon="3.13246">
        <ele>95.026639046519</ele>
        <time>2016-12-28T13:48:06Z</time>
      </trkpt>
      <trkpt lat="43.175" lon="3.13236">
        <ele>95.026639046519</ele>
        <time>2016-12-28T13:48:14Z</time>
      </trkpt>
      <trkpt lat="43.17495" lon="3.1322">
        <ele>94.894727462327</ele>
        <time>2016-12-28T13:48:23Z</time>
      </trkpt>
      <trkpt lat="43.17477" lon="3.13173">
        <ele>94.933329091009</ele>
        <time>2016-12-28T13:48:43Z</time>
      </trkpt>
      <trkpt lat="43.17476" lon="3.13167">
        <ele>94.933329091009</ele>
        <time>2016-12-28T13:48:47Z</time>
      </trkpt>
      <trkpt lat="43.17439" lon="3.12972">
        <ele>96.089686223658</ele>
        <time>2016-12-28T13:50:39Z</time>
      </trkpt>
      <trkpt lat="43.17433" lon="3.12952">
        <ele>97.566557732489</ele>
        <time>2016-12-28T13:50:46Z</time>
      </trkpt>
      <trkpt lat="43.1743" lon="3.12945">
        <ele>97.566557732489</ele>
        <time>2016-12-28T13:50:47Z</time>
      </trkpt>
      <trkpt lat="43.17425" lon="3.12934">
        <ele>99.301646635194</ele>
        <time>2016-12-28T13:51:04Z</time>
      </trkpt>
      <trkpt lat="43.17385" lon="3.12841">
        <ele>101.03473978464</ele>
        <time>2016-12-28T13:52:00Z</time>
      </trkpt>
      <trkpt lat="43.17363" lon="3.12788">
        <ele>102.43829693133</ele>
        <time>2016-12-28T13:52:28Z</time>
      </trkpt>
      <trkpt lat="43.17349" lon="3.12753">
        <ele>103.95918975544</ele>
        <time>2016-12-28T13:52:45Z</time>
      </trkpt>
      <trkpt lat="43.17325" lon="3.12712">
        <ele>105.55005376869</ele>
        <time>2016-12-28T13:53:19Z</time>
      </trkpt>
      <trkpt lat="43.1732" lon="3.127">
        <ele>107.16690779147</ele>
        <time>2016-12-28T13:53:19Z</time>
      </trkpt>
      <trkpt lat="43.17293" lon="3.12654">
        <ele>108.86992912574</ele>
        <time>2016-12-28T13:54:04Z</time>
      </trkpt>
      <trkpt lat="43.17285" lon="3.12639">
        <ele>110.58507636563</ele>
        <time>2016-12-28T13:54:13Z</time>
      </trkpt>
      <trkpt lat="43.17259" lon="3.12596">
        <ele>112.38798732578</ele>
        <time>2016-12-28T13:54:37Z</time>
      </trkpt>
      <trkpt lat="43.17255" lon="3.12587">
        <ele>112.38798732578</ele>
        <time>2016-12-28T13:54:42Z</time>
      </trkpt>
      <trkpt lat="43.17251" lon="3.12581">
        <ele>114.20456695354</ele>
        <time>2016-12-28T13:54:47Z</time>
      </trkpt>
      <trkpt lat="43.17247" lon="3.12573">
        <ele>114.20456695354</ele>
        <time>2016-12-28T13:54:52Z</time>
      </trkpt>
      <trkpt lat="43.17243" lon="3.12564">
        <ele>116.12484432221</ele>
        <time>2016-12-28T13:54:57Z</time>
      </trkpt>
      <trkpt lat="43.17239" lon="3.12557">
        <ele>116.12484432221</ele>
        <time>2016-12-28T13:55:02Z</time>
      </trkpt>
      <trkpt lat="43.17215" lon="3.12521">
        <ele>117.67012203478</ele>
        <time>2016-12-28T13:55:26Z</time>
      </trkpt>
      <trkpt lat="43.17214" lon="3.1252">
        <ele>117.67012203478</ele>
        <time>2016-12-28T13:55:27Z</time>
      </trkpt>
      <trkpt lat="43.17196" lon="3.12489">
        <ele>118.96017646455</ele>
        <time>2016-12-28T13:55:49Z</time>
      </trkpt>
      <trkpt lat="43.1718" lon="3.12474">
        <ele>120.1357561674</ele>
        <time>2016-12-28T13:56:29Z</time>
      </trkpt>
      <trkpt lat="43.17173" lon="3.12465">
        <ele>121.55840907077</ele>
        <time>2016-12-28T13:56:29Z</time>
      </trkpt>
      <trkpt lat="43.17164" lon="3.12446">
        <ele>122.92858616259</ele>
        <time>2016-12-28T13:56:44Z</time>
      </trkpt>
      <trkpt lat="43.17108" lon="3.12353">
        <ele>124.61763903511</ele>
        <time>2016-12-28T13:57:46Z</time>
      </trkpt>
      <trkpt lat="43.17087" lon="3.12325">
        <ele>126.37814190475</ele>
        <time>2016-12-28T13:58:07Z</time>
      </trkpt>
      <trkpt lat="43.17066" lon="3.12294">
        <ele>128.15383364464</ele>
        <time>2016-12-28T13:58:30Z</time>
      </trkpt>
      <trkpt lat="43.17055" lon="3.12274">
        <ele>129.84956928021</ele>
        <time>2016-12-28T13:58:42Z</time>
      </trkpt>
      <trkpt lat="43.17049" lon="3.12265">
        <ele>129.84956928021</ele>
        <time>2016-12-28T13:58:49Z</time>
      </trkpt>
      <trkpt lat="43.17039" lon="3.12253">
        <ele>131.50737934347</ele>
        <time>2016-12-28T13:58:58Z</time>
      </trkpt>
      <trkpt lat="43.17007" lon="3.12187">
        <ele>133.42597721319</ele>
        <time>2016-12-28T13:59:41Z</time>
      </trkpt>
      <trkpt lat="43.16983" lon="3.12082">
        <ele>135.30522174045</ele>
        <time>2016-12-28T14:00:42Z</time>
      </trkpt>
      <trkpt lat="43.16982" lon="3.12075">
        <ele>135.30522174045</ele>
        <time>2016-12-28T14:01:02Z</time>
      </trkpt>
      <trkpt lat="43.16975" lon="3.12043">
        <ele>137.05474024369</ele>
        <time>2016-12-28T14:01:03Z</time>
      </trkpt>
      <trkpt lat="43.16963" lon="3.12001">
        <ele>138.51937167923</ele>
        <time>2016-12-28T14:01:26Z</time>
      </trkpt>
      <trkpt lat="43.1692" lon="3.11881">
        <ele>139.75817015482</ele>
        <time>2016-12-28T14:02:41Z</time>
      </trkpt>
      <trkpt lat="43.16916" lon="3.11869">
        <ele>140.76909853988</ele>
        <time>2016-12-28T14:02:41Z</time>
      </trkpt>
      <trkpt lat="43.16912" lon="3.11855">
        <ele>141.59439294298</ele>
        <time>2016-12-28T14:02:49Z</time>
      </trkpt>
      <trkpt lat="43.1691" lon="3.11849">
        <ele>141.59439294298</ele>
        <time>2016-12-28T14:02:52Z</time>
      </trkpt>
      <trkpt lat="43.16908" lon="3.11841">
        <ele>142.51893916873</ele>
        <time>2016-12-28T14:02:57Z</time>
      </trkpt>
      <trkpt lat="43.16907" lon="3.11831">
        <ele>142.51893916873</ele>
        <time>2016-12-28T14:03:02Z</time>
      </trkpt>
      <trkpt lat="43.16904" lon="3.11823">
        <ele>143.28784966366</ele>
        <time>2016-12-28T14:03:07Z</time>
      </trkpt>
      <trkpt lat="43.16901" lon="3.11814">
        <ele>143.28784966366</ele>
        <time>2016-12-28T14:03:12Z</time>
      </trkpt>
      <trkpt lat="43.16901" lon="3.11806">
        <ele>143.83855278255</ele>
        <time>2016-12-28T14:03:22Z</time>
      </trkpt>
      <trkpt lat="43.16895" lon="3.1177">
        <ele>143.75361716868</ele>
        <time>2016-12-28T14:03:34Z</time>
      </trkpt>
      <trkpt lat="43.16895" lon="3.11765">
        <ele>143.75361716868</ele>
        <time>2016-12-28T14:03:40Z</time>
      </trkpt>
      <trkpt lat="43.16895" lon="3.11713">
        <ele>143.28234334888</ele>
        <time>2016-12-28T14:04:03Z</time>
      </trkpt>
      <trkpt lat="43.16906" lon="3.11647">
        <ele>142.26788017893</ele>
        <time>2016-12-28T14:04:41Z</time>
      </trkpt>
      <trkpt lat="43.16908" lon="3.11646">
        <ele>142.26788017893</ele>
        <time>2016-12-28T14:04:42Z</time>
      </trkpt>
      <trkpt lat="43.16908" lon="3.11638">
        <ele>142.26788017893</ele>
        <time>2016-12-28T14:04:47Z</time>
      </trkpt>
      <trkpt lat="43.16925" lon="3.11607">
        <ele>140.95568080703</ele>
        <time>2016-12-28T14:05:40Z</time>
      </trkpt>
      <trkpt lat="43.16949" lon="3.11552">
        <ele>139.50208297431</ele>
        <time>2016-12-28T14:05:49Z</time>
      </trkpt>
      <trkpt lat="43.16962" lon="3.11523">
        <ele>138.32626061236</ele>
        <time>2016-12-28T14:06:00Z</time>
      </trkpt>
      <trkpt lat="43.1697" lon="3.11509">
        <ele>137.26828386898</ele>
        <time>2016-12-28T14:06:06Z</time>
      </trkpt>
      <trkpt lat="43.16971" lon="3.11508">
        <ele>137.26828386898</ele>
        <time>2016-12-28T14:06:07Z</time>
      </trkpt>
      <trkpt lat="43.17014" lon="3.11455">
        <ele>136.36705447302</ele>
        <time>2016-12-28T14:06:49Z</time>
      </trkpt>
      <trkpt lat="43.17015" lon="3.11453">
        <ele>136.36705447302</ele>
        <time>2016-12-28T14:06:59Z</time>
      </trkpt>
      <trkpt lat="43.17118" lon="3.11339">
        <ele>136.68141876869</ele>
        <time>2016-12-28T14:08:42Z</time>
      </trkpt>
      <trkpt lat="43.17124" lon="3.11333">
        <ele>136.68141876869</ele>
        <time>2016-12-28T14:08:51Z</time>
      </trkpt>
      <trkpt lat="43.17211" lon="3.11251">
        <ele>136.96975863384</ele>
        <time>2016-12-28T14:10:08Z</time>
      </trkpt>
      <trkpt lat="43.17229" lon="3.11229">
        <ele>136.96084579228</ele>
        <time>2016-12-28T14:10:18Z</time>
      </trkpt>
      <trkpt lat="43.17234" lon="3.11224">
        <ele>136.96084579228</ele>
        <time>2016-12-28T14:10:22Z</time>
      </trkpt>
      <trkpt lat="43.17238" lon="3.11217">
        <ele>136.9662670674</ele>
        <time>2016-12-28T14:10:27Z</time>
      </trkpt>
      <trkpt lat="43.17244" lon="3.11212">
        <ele>136.9662670674</ele>
        <time>2016-12-28T14:10:32Z</time>
      </trkpt>
      <trkpt lat="43.1725" lon="3.11208">
        <ele>136.66943072644</ele>
        <time>2016-12-28T14:10:37Z</time>
      </trkpt>
      <trkpt lat="43.17255" lon="3.11203">
        <ele>136.66943072644</ele>
        <time>2016-12-28T14:10:42Z</time>
      </trkpt>
      <trkpt lat="43.1726" lon="3.112">
        <ele>136.29666073831</ele>
        <time>2016-12-28T14:10:47Z</time>
      </trkpt>
      <trkpt lat="43.17334" lon="3.11173">
        <ele>135.35172645935</ele>
        <time>2016-12-28T14:11:56Z</time>
      </trkpt>
      <trkpt lat="43.17344" lon="3.11169">
        <ele>134.39963801656</ele>
        <time>2016-12-28T14:12:00Z</time>
      </trkpt>
      <trkpt lat="43.17366" lon="3.11158">
        <ele>133.51715922813</ele>
        <time>2016-12-28T14:12:17Z</time>
      </trkpt>
      <trkpt lat="43.17379" lon="3.1115">
        <ele>132.80401530145</ele>
        <time>2016-12-28T14:12:27Z</time>
      </trkpt>
      <trkpt lat="43.17386" lon="3.11147">
        <ele>132.80401530145</ele>
        <time>2016-12-28T14:12:32Z</time>
      </trkpt>
      <trkpt lat="43.17391" lon="3.11144">
        <ele>132.45297289291</ele>
        <time>2016-12-28T14:12:37Z</time>
      </trkpt>
      <trkpt lat="43.17398" lon="3.11142">
        <ele>132.45297289291</ele>
        <time>2016-12-28T14:12:42Z</time>
      </trkpt>
      <trkpt lat="43.17403" lon="3.11138">
        <ele>132.02190132373</ele>
        <time>2016-12-28T14:12:47Z</time>
      </trkpt>
      <trkpt lat="43.1745" lon="3.11029">
        <ele>129.76108740918</ele>
        <time>2016-12-28T14:14:00Z</time>
      </trkpt>
      <trkpt lat="43.17459" lon="3.10991">
        <ele>127.61396835373</ele>
        <time>2016-12-28T14:14:17Z</time>
      </trkpt>
      <trkpt lat="43.17477" lon="3.10957">
        <ele>125.50738043108</ele>
        <time>2016-12-28T14:14:42Z</time>
      </trkpt>
      <trkpt lat="43.17513" lon="3.10848">
        <ele>123.17157756138</ele>
        <time>2016-12-28T14:15:47Z</time>
      </trkpt>
      <trkpt lat="43.17534" lon="3.10835">
        <ele>121.14978081778</ele>
        <time>2016-12-28T14:16:07Z</time>
      </trkpt>
      <trkpt lat="43.17543" lon="3.10828">
        <ele>119.38227648087</ele>
        <time>2016-12-28T14:16:07Z</time>
      </trkpt>
      <trkpt lat="43.17592" lon="3.10797">
        <ele>117.51026363707</ele>
        <time>2016-12-28T14:16:47Z</time>
      </trkpt>
      <trkpt lat="43.17598" lon="3.10793">
        <ele>117.51026363707</ele>
        <time>2016-12-28T14:16:52Z</time>
      </trkpt>
      <trkpt lat="43.17608" lon="3.10786">
        <ele>115.87877852928</ele>
        <time>2016-12-28T14:17:07Z</time>
      </trkpt>
      <trkpt lat="43.17617" lon="3.10781">
        <ele>114.43200520696</ele>
        <time>2016-12-28T14:17:07Z</time>
      </trkpt>
      <trkpt lat="43.17627" lon="3.10771">
        <ele>113.16079652034</ele>
        <time>2016-12-28T14:17:16Z</time>
      </trkpt>
      <trkpt lat="43.17682" lon="3.10752">
        <ele>112.34425868361</ele>
        <time>2016-12-28T14:18:02Z</time>
      </trkpt>
      <trkpt lat="43.17702" lon="3.10761">
        <ele>111.5478379158</ele>
        <time>2016-12-28T14:18:23Z</time>
      </trkpt>
      <trkpt lat="43.17713" lon="3.10766">
        <ele>110.72897845871</ele>
        <time>2016-12-28T14:18:23Z</time>
      </trkpt>
      <trkpt lat="43.1773" lon="3.10778">
        <ele>109.99228322717</ele>
        <time>2016-12-28T14:18:36Z</time>
      </trkpt>
      <trkpt lat="43.17731" lon="3.10779">
        <ele>109.99228322717</ele>
        <time>2016-12-28T14:18:37Z</time>
      </trkpt>
      <trkpt lat="43.17739" lon="3.10789">
        <ele>109.1172590149</ele>
        <time>2016-12-28T14:18:45Z</time>
      </trkpt>
      <trkpt lat="43.1774" lon="3.10792">
        <ele>109.1172590149</ele>
        <time>2016-12-28T14:18:47Z</time>
      </trkpt>
      <trkpt lat="43.17745" lon="3.10799">
        <ele>108.33219923779</ele>
        <time>2016-12-28T14:18:52Z</time>
      </trkpt>
      <trkpt lat="43.1775" lon="3.10807">
        <ele>108.33219923779</ele>
        <time>2016-12-28T14:18:57Z</time>
      </trkpt>
      <trkpt lat="43.17755" lon="3.10815">
        <ele>107.7185474162</ele>
        <time>2016-12-28T14:19:02Z</time>
      </trkpt>
      <trkpt lat="43.17758" lon="3.10822">
        <ele>107.7185474162</ele>
        <time>2016-12-28T14:19:07Z</time>
      </trkpt>
      <trkpt lat="43.17763" lon="3.1083">
        <ele>107.12058373294</ele>
        <time>2016-12-28T14:19:12Z</time>
      </trkpt>
      <trkpt lat="43.17823" lon="3.10942">
        <ele>105.41390942606</ele>
        <time>2016-12-28T14:20:29Z</time>
      </trkpt>
      <trkpt lat="43.17827" lon="3.10956">
        <ele>103.79344162839</ele>
        <time>2016-12-28T14:20:29Z</time>
      </trkpt>
      <trkpt lat="43.17839" lon="3.1098">
        <ele>102.14101882929</ele>
        <time>2016-12-28T14:20:42Z</time>
      </trkpt>
      <trkpt lat="43.17843" lon="3.10987">
        <ele>102.14101882929</ele>
        <time>2016-12-28T14:20:47Z</time>
      </trkpt>
      <trkpt lat="43.17855" lon="3.11011">
        <ele>100.46242348033</ele>
        <time>2016-12-28T14:21:03Z</time>
      </trkpt>
      <trkpt lat="43.17899" lon="3.11084">
        <ele>98.417102812474</ele>
        <time>2016-12-28T14:21:51Z</time>
      </trkpt>
      <trkpt lat="43.179" lon="3.11086">
        <ele>98.417102812474</ele>
        <time>2016-12-28T14:21:51Z</time>
      </trkpt>
      <trkpt lat="43.17901" lon="3.11087">
        <ele>98.417102812474</ele>
        <time>2016-12-28T14:21:54Z</time>
      </trkpt>
      <trkpt lat="43.17914" lon="3.11108">
        <ele>96.036296449978</ele>
        <time>2016-12-28T14:22:13Z</time>
      </trkpt>
      <trkpt lat="43.17918" lon="3.11105">
        <ele>96.036296449978</ele>
        <time>2016-12-28T14:22:13Z</time>
      </trkpt>
      <trkpt lat="43.17931" lon="3.11123">
        <ele>94.070323245073</ele>
        <time>2016-12-28T14:22:42Z</time>
      </trkpt>
      <trkpt lat="43.17986" lon="3.11172">
        <ele>92.36283879173</ele>
        <time>2016-12-28T14:24:00Z</time>
      </trkpt>
      <trkpt lat="43.18031" lon="3.11202">
        <ele>90.869008894769</ele>
        <time>2016-12-28T14:24:08Z</time>
      </trkpt>
      <trkpt lat="43.18085" lon="3.11235">
        <ele>89.762733413899</ele>
        <time>2016-12-28T14:24:42Z</time>
      </trkpt>
      <trkpt lat="43.18091" lon="3.1124">
        <ele>89.762733413899</ele>
        <time>2016-12-28T14:24:47Z</time>
      </trkpt>
      <trkpt lat="43.18104" lon="3.11259">
        <ele>89.00217155403</ele>
        <time>2016-12-28T14:25:08Z</time>
      </trkpt>
      <trkpt lat="43.18114" lon="3.11268">
        <ele>88.38894675495</ele>
        <time>2016-12-28T14:25:08Z</time>
      </trkpt>
      <trkpt lat="43.18218" lon="3.1119">
        <ele>86.225562413521</ele>
        <time>2016-12-28T14:26:47Z</time>
      </trkpt>
      <trkpt lat="43.18221" lon="3.11187">
        <ele>86.225562413521</ele>
        <time>2016-12-28T14:26:47Z</time>
      </trkpt>
      <trkpt lat="43.18226" lon="3.11176">
        <ele>83.969794466296</ele>
        <time>2016-12-28T14:26:53Z</time>
      </trkpt>
      <trkpt lat="43.18232" lon="3.1117">
        <ele>83.969794466296</ele>
        <time>2016-12-28T14:26:57Z</time>
      </trkpt>
      <trkpt lat="43.18239" lon="3.11163">
        <ele>81.906062460846</ele>
        <time>2016-12-28T14:27:02Z</time>
      </trkpt>
      <trkpt lat="43.18245" lon="3.11157">
        <ele>81.906062460846</ele>
        <time>2016-12-28T14:27:07Z</time>
      </trkpt>
      <trkpt lat="43.1825" lon="3.11152">
        <ele>79.908147832889</ele>
        <time>2016-12-28T14:27:12Z</time>
      </trkpt>
      <trkpt lat="43.18256" lon="3.11146">
        <ele>79.908147832889</ele>
        <time>2016-12-28T14:27:17Z</time>
      </trkpt>
      <trkpt lat="43.18281" lon="3.11113">
        <ele>77.455299462213</ele>
        <time>2016-12-28T14:27:44Z</time>
      </trkpt>
      <trkpt lat="43.18312" lon="3.11054">
        <ele>74.48410708112</ele>
        <time>2016-12-28T14:28:42Z</time>
      </trkpt>
      <trkpt lat="43.18315" lon="3.11045">
        <ele>74.48410708112</ele>
        <time>2016-12-28T14:28:47Z</time>
      </trkpt>
      <trkpt lat="43.18314" lon="3.11022">
        <ele>71.78741326025</ele>
        <time>2016-12-28T14:29:08Z</time>
      </trkpt>
      <trkpt lat="43.18314" lon="3.11013">
        <ele>71.78741326025</ele>
        <time>2016-12-28T14:29:08Z</time>
      </trkpt>
      <trkpt lat="43.18323" lon="3.10999">
        <ele>69.205440190789</ele>
        <time>2016-12-28T14:29:25Z</time>
      </trkpt>
      <trkpt lat="43.18327" lon="3.10988">
        <ele>66.777046484131</ele>
        <time>2016-12-28T14:29:25Z</time>
      </trkpt>
      <trkpt lat="43.18339" lon="3.10957">
        <ele>64.162989440826</ele>
        <time>2016-12-28T14:30:00Z</time>
      </trkpt>
      <trkpt lat="43.18374" lon="3.10824">
        <ele>61.582550092907</ele>
        <time>2016-12-28T14:30:49Z</time>
      </trkpt>
      <trkpt lat="43.18413" lon="3.10635">
        <ele>60.13216770375</ele>
        <time>2016-12-28T14:32:35Z</time>
      </trkpt>
      <trkpt lat="43.18411" lon="3.10619">
        <ele>58.950996802063</ele>
        <time>2016-12-28T14:32:35Z</time>
      </trkpt>
      <trkpt lat="43.18409" lon="3.10593">
        <ele>57.989932169142</ele>
        <time>2016-12-28T14:32:47Z</time>
      </trkpt>
      <trkpt lat="43.18416" lon="3.10567">
        <ele>57.23157006111</ele>
        <time>2016-12-28T14:33:14Z</time>
      </trkpt>
      <trkpt lat="43.18432" lon="3.10541">
        <ele>56.774407170103</ele>
        <time>2016-12-28T14:33:23Z</time>
      </trkpt>
      <trkpt lat="43.18449" lon="3.10499">
        <ele>56.867297842788</ele>
        <time>2016-12-28T14:33:50Z</time>
      </trkpt>
      <trkpt lat="43.18475" lon="3.10452">
        <ele>57.263637574994</ele>
        <time>2016-12-28T14:34:08Z</time>
      </trkpt>
      <trkpt lat="43.18476" lon="3.1045">
        <ele>57.263637574994</ele>
        <time>2016-12-28T14:34:09Z</time>
      </trkpt>
      <trkpt lat="43.18479" lon="3.10435">
        <ele>57.647568382951</ele>
        <time>2016-12-28T14:34:17Z</time>
      </trkpt>
      <trkpt lat="43.18481" lon="3.10427">
        <ele>57.647568382951</ele>
        <time>2016-12-28T14:34:22Z</time>
      </trkpt>
      <trkpt lat="43.18484" lon="3.10419">
        <ele>57.784081189323</ele>
        <time>2016-12-28T14:34:27Z</time>
      </trkpt>
      <trkpt lat="43.18486" lon="3.1041">
        <ele>57.784081189323</ele>
        <time>2016-12-28T14:34:32Z</time>
      </trkpt>
      <trkpt lat="43.18549" lon="3.1025">
        <ele>55.957349528473</ele>
        <time>2016-12-28T14:36:07Z</time>
      </trkpt>
      <trkpt lat="43.18562" lon="3.10182">
        <ele>53.955290414091</ele>
        <time>2016-12-28T14:36:44Z</time>
      </trkpt>
      <trkpt lat="43.18564" lon="3.10173">
        <ele>53.955290414091</ele>
        <time>2016-12-28T14:36:47Z</time>
      </trkpt>
      <trkpt lat="43.18566" lon="3.10147">
        <ele>52.123557693307</ele>
        <time>2016-12-28T14:37:00Z</time>
      </trkpt>
      <trkpt lat="43.18568" lon="3.10134">
        <ele>50.320776221192</ele>
        <time>2016-12-28T14:37:08Z</time>
      </trkpt>
      <trkpt lat="43.18567" lon="3.1011">
        <ele>48.66085780961</ele>
        <time>2016-12-28T14:37:20Z</time>
      </trkpt>
      <trkpt lat="43.18568" lon="3.10105">
        <ele>48.66085780961</ele>
        <time>2016-12-28T14:37:25Z</time>
      </trkpt>
      <trkpt lat="43.18572" lon="3.1007">
        <ele>47.133649067387</ele>
        <time>2016-12-28T14:37:42Z</time>
      </trkpt>
      <trkpt lat="43.18572" lon="3.10068">
        <ele>47.133649067387</ele>
        <time>2016-12-28T14:37:44Z</time>
      </trkpt>
      <trkpt lat="43.18574" lon="3.10053">
        <ele>45.801417933538</ele>
        <time>2016-12-28T14:37:50Z</time>
      </trkpt>
      <trkpt lat="43.18576" lon="3.1004">
        <ele>44.764537925279</ele>
        <time>2016-12-28T14:37:58Z</time>
      </trkpt>
      <trkpt lat="43.18582" lon="3.0998">
        <ele>43.826954211911</ele>
        <time>2016-12-28T14:38:29Z</time>
      </trkpt>
      <trkpt lat="43.18584" lon="3.09907">
        <ele>42.763501498311</ele>
        <time>2016-12-28T14:39:10Z</time>
      </trkpt>
      <trkpt lat="43.18585" lon="3.09854">
        <ele>41.423555537386</ele>
        <time>2016-12-28T14:39:37Z</time>
      </trkpt>
      <trkpt lat="43.18591" lon="3.0977">
        <ele>38.645146972771</ele>
        <time>2016-12-28T14:40:24Z</time>
      </trkpt>
      <trkpt lat="43.18591" lon="3.09757">
        <ele>36.050580340046</ele>
        <time>2016-12-28T14:40:29Z</time>
      </trkpt>
      <trkpt lat="43.18591" lon="3.09743">
        <ele>33.629301239934</ele>
        <time>2016-12-28T14:40:42Z</time>
      </trkpt>
      <trkpt lat="43.18594" lon="3.0973">
        <ele>31.39985774633</ele>
        <time>2016-12-28T14:40:42Z</time>
      </trkpt>
      <trkpt lat="43.18611" lon="3.09669">
        <ele>29.004191980454</ele>
        <time>2016-12-28T14:41:23Z</time>
      </trkpt>
      <trkpt lat="43.1861" lon="3.09657">
        <ele>29.004191980454</ele>
        <time>2016-12-28T14:41:23Z</time>
      </trkpt>
      <trkpt lat="43.1861" lon="3.09643">
        <ele>26.730671176565</ele>
        <time>2016-12-28T14:41:32Z</time>
      </trkpt>
      <trkpt lat="43.18654" lon="3.09593">
        <ele>24.60112121635</ele>
        <time>2016-12-28T14:42:20Z</time>
      </trkpt>
      <trkpt lat="43.18675" lon="3.09612">
        <ele>22.851498059789</ele>
        <time>2016-12-28T14:42:42Z</time>
      </trkpt>
      <trkpt lat="43.18714" lon="3.09605">
        <ele>21.64168377156</ele>
        <time>2016-12-28T14:43:12Z</time>
      </trkpt>
      <trkpt lat="43.18715" lon="3.09609">
        <ele>21.64168377156</ele>
        <time>2016-12-28T14:43:17Z</time>
      </trkpt>
      <trkpt lat="43.18717" lon="3.09603">
        <ele>21.64168377156</ele>
        <time>2016-12-28T14:43:27Z</time>
      </trkpt>
      <trkpt lat="43.18723" lon="3.09599">
        <ele>20.57064978614</ele>
        <time>2016-12-28T14:43:32Z</time>
      </trkpt>
      <trkpt lat="43.18735" lon="3.09563">
        <ele>19.669923705879</ele>
        <time>2016-12-28T14:43:57Z</time>
      </trkpt>
      <trkpt lat="43.18749" lon="3.09512">
        <ele>18.924987002534</ele>
        <time>2016-12-28T14:44:29Z</time>
      </trkpt>
      <trkpt lat="43.18751" lon="3.09499">
        <ele>18.365172536179</ele>
        <time>2016-12-28T14:44:29Z</time>
      </trkpt>
      <trkpt lat="43.18754" lon="3.09487">
        <ele>17.945080403338</ele>
        <time>2016-12-28T14:44:42Z</time>
      </trkpt>
      <trkpt lat="43.18755" lon="3.09479">
        <ele>17.945080403338</ele>
        <time>2016-12-28T14:44:42Z</time>
      </trkpt>
      <trkpt lat="43.18762" lon="3.09406">
        <ele>18.169883106733</ele>
        <time>2016-12-28T14:45:26Z</time>
      </trkpt>
      <trkpt lat="43.18762" lon="3.09404">
        <ele>18.169883106733</ele>
        <time>2016-12-28T14:45:29Z</time>
      </trkpt>
      <trkpt lat="43.18782" lon="3.09333">
        <ele>18.670007873316</ele>
        <time>2016-12-28T14:46:06Z</time>
      </trkpt>
      <trkpt lat="43.18783" lon="3.0933">
        <ele>18.670007873316</ele>
        <time>2016-12-28T14:46:07Z</time>
      </trkpt>
      <trkpt lat="43.18787" lon="3.09322">
        <ele>19.145522462796</ele>
        <time>2016-12-28T14:46:12Z</time>
      </trkpt>
      <trkpt lat="43.18786" lon="3.09312">
        <ele>19.145522462796</ele>
        <time>2016-12-28T14:46:17Z</time>
      </trkpt>
      <trkpt lat="43.18791" lon="3.09307">
        <ele>19.592452238413</ele>
        <time>2016-12-28T14:46:22Z</time>
      </trkpt>
      <trkpt lat="43.18793" lon="3.09298">
        <ele>19.592452238413</ele>
        <time>2016-12-28T14:46:27Z</time>
      </trkpt>
      <trkpt lat="43.18796" lon="3.09289">
        <ele>20.180186599505</ele>
        <time>2016-12-28T14:46:32Z</time>
      </trkpt>
      <trkpt lat="43.188" lon="3.09282">
        <ele>20.180186599505</ele>
        <time>2016-12-28T14:46:37Z</time>
      </trkpt>
      <trkpt lat="43.18802" lon="3.09274">
        <ele>21.353571709008</ele>
        <time>2016-12-28T14:46:42Z</time>
      </trkpt>
    </trkseg>
  </trk>
</gpx>